Observation data for Claude 12 Southwest on 02/21/2019      Previous  Date       Current Mesonet Observations  Soil Data  Daily Summary Page  Observations in Plain Language
KCL1 210600Z 18003KT 05/M15 A2984 RMK A01 T00471145  RH  023%=      5-min Rain = 0
KCL1 210601Z 18003KT 05/M15 A2983 RMK A01 T00471145  RH  023%=      5-min Rain = 0
KCL1 210602Z 18003KT 05/M15 A2983 RMK A01 T00481145  RH  023%=      5-min Rain = 0
KCL1 210603Z 18003KT 05/M15 A2983 RMK A01 T00481145  RH  023%=      5-min Rain = 0
KCL1 210604Z 18003KT 05/M15 A2983 RMK A01 T00481145  RH  023%=      5-min Rain = 0
KCL1 210605Z 18003KT 05/M15 A2983 RMK A01 T00461146  RH  023%=      5-min Rain = 0
KCL1 210606Z 18003KT 05/M15 A2983 RMK A01 T00451146  RH  023%=      5-min Rain = 0
KCL1 210607Z 18004KT 05/M15 A2983 RMK A01 T00451146  RH  024%=      5-min Rain = 0
KCL1 210608Z 17003KT 05/M15 A2983 RMK A01 T00461145  RH  023%=      5-min Rain = 0
KCL1 210609Z 17003KT 05/M15 A2983 RMK A01 T00451146  RH  024%=      5-min Rain = 0
KCL1 210610Z 17002KT 04/M15 A2983 RMK A01 T00441146  RH  024%=      5-min Rain = 0
KCL1 210611Z 16003KT 04/M15 A2983 RMK A01 T00441146  RH  024%=      5-min Rain = 0
KCL1 210612Z 17003KT 04/M15 A2983 RMK A01 T00441145  RH  024%=      5-min Rain = 0
KCL1 210613Z 15002KT 04/M15 A2983 RMK A01 T00421147  RH  024%=      5-min Rain = 0
KCL1 210614Z 15002KT 04/M15 A2983 RMK A01 T00351152  RH  024%=      5-min Rain = 0
KCL1 210615Z 17003KT 03/M15 A2983 RMK A01 T00301152  RH  025%=      5-min Rain = 0
KCL1 210616Z 17003KT 03/M15 A2983 RMK A01 T00281150  RH  026%=      5-min Rain = 0
KCL1 210617Z 17002KT 03/M15 A2983 RMK A01 T00281149  RH  026%=      5-min Rain = 0
KCL1 210618Z 16003KT 03/M15 A2983 RMK A01 T00291148  RH  026%=      5-min Rain = 0
KCL1 210619Z 17003KT 03/M15 A2983 RMK A01 T00321146  RH  026%=      5-min Rain = 0
KCL1 210620Z 17004KT 04/M14 A2983 RMK A01 T00351144  RH  025%=      5-min Rain = 0
KCL1 210621Z 17005KT 04/M14 A2983 RMK A01 T00391144  RH  025%=      5-min Rain = 0
KCL1 210622Z 17005KT 04/M14 A2983 RMK A01 T00401144  RH  025%=      5-min Rain = 0
KCL1 210623Z 17006KT 04/M14 A2983 RMK A01 T00411143  RH  025%=      5-min Rain = 0
KCL1 210624Z 18004KT 04/M14 A2983 RMK A01 T00411143  RH  025%=      5-min Rain = 0
KCL1 210625Z 17005KT 04/M14 A2983 RMK A01 T00411143  RH  025%=      5-min Rain = 0
KCL1 210626Z 18006KT 04/M14 A2983 RMK A01 T00401143  RH  025%=      5-min Rain = 0
KCL1 210627Z 17006KT 04/M14 A2983 RMK A01 T00411142  RH  025%=      5-min Rain = 0
KCL1 210628Z 18006KT 04/M14 A2983 RMK A01 T00421141  RH  025%=      5-min Rain = 0
KCL1 210629Z 16006KT 04/M14 A2983 RMK A01 T00421140  RH  025%=      5-min Rain = 0
KCL1 210630Z 17008KT 04/M14 A2983 RMK A01 T00431139  RH  025%=      5-min Rain = 0
KCL1 210631Z 17007KT 04/M14 A2983 RMK A01 T00431139  RH  025%=      5-min Rain = 0
KCL1 210632Z 18007KT 05/M14 A2983 RMK A01 T00451137  RH  025%=      5-min Rain = 0
KCL1 210633Z 17007KT 05/M14 A2983 RMK A01 T00471138  RH  025%=      5-min Rain = 0
KCL1 210634Z 17007KT 05/M14 A2983 RMK A01 T00501137  RH  024%=      5-min Rain = 0
KCL1 210635Z 17006KT 05/M14 A2983 RMK A01 T00511138  RH  024%=      5-min Rain = 0
KCL1 210636Z 17006KT 05/M14 A2983 RMK A01 T00511138  RH  024%=      5-min Rain = 0
KCL1 210637Z 17007KT 05/M14 A2983 RMK A01 T00511138  RH  024%=      5-min Rain = 0
KCL1 210638Z 18008KT 05/M14 A2983 RMK A01 T00501139  RH  024%=      5-min Rain = 0
KCL1 210639Z 17007KT 05/M14 A2983 RMK A01 T00491138  RH  024%=      5-min Rain = 0
KCL1 210640Z 18008KT 05/M14 A2983 RMK A01 T00481138  RH  025%=      5-min Rain = 0
KCL1 210641Z 18009KT 05/M14 A2983 RMK A01 T00491137  RH  025%=      5-min Rain = 0
KCL1 210642Z 18009KT 05/M14 A2983 RMK A01 T00491136  RH  025%=      5-min Rain = 0
KCL1 210643Z 17007KT 05/M14 A2983 RMK A01 T00511136  RH  024%=      5-min Rain = 0
KCL1 210644Z 18007KT 05/M14 A2983 RMK A01 T00511136  RH  024%=      5-min Rain = 0
KCL1 210645Z 17009KT 05/M14 A2983 RMK A01 T00511136  RH  024%=      5-min Rain = 0
KCL1 210646Z 17009KT 05/M14 A2983 RMK A01 T00511136  RH  024%=      5-min Rain = 0
KCL1 210647Z 17008KT 05/M14 A2983 RMK A01 T00511136  RH  024%=      5-min Rain = 0
KCL1 210648Z 16008KT 05/M14 A2983 RMK A01 T00511136  RH  024%=      5-min Rain = 0
KCL1 210649Z 17008KT 05/M14 A2983 RMK A01 T00511136  RH  024%=      5-min Rain = 0
KCL1 210650Z 17009KT 05/M14 A2983 RMK A01 T00511136  RH  025%=      5-min Rain = 0
KCL1 210651Z 17008KT 05/M14 A2983 RMK A01 T00511136  RH  025%=      5-min Rain = 0
KCL1 210652Z 17008KT 05/M14 A2983 RMK A01 T00511135  RH  025%=      5-min Rain = 0
KCL1 210653Z 17008KT 05/M14 A2983 RMK A01 T00511135  RH  025%=      5-min Rain = 0
KCL1 210654Z 17008KT 05/M14 A2983 RMK A01 T00501135  RH  025%=      5-min Rain = 0
KCL1 210655Z 18009KT 05/M14 A2983 RMK A01 T00501135  RH  025%=      5-min Rain = 0
KCL1 210656Z 18008KT 05/M14 A2983 RMK A01 T00511135  RH  025%=      5-min Rain = 0
KCL1 210657Z 17008KT 05/M14 A2983 RMK A01 T00511135  RH  025%=      5-min Rain = 0
KCL1 210658Z 17007KT 05/M14 A2983 RMK A01 T00511135  RH  025%=      5-min Rain = 0
KCL1 210659Z 17007KT 05/M14 A2983 RMK A01 T00511135  RH  025%=      5-min Rain = 0
KCL1 210700Z 17007KT 05/M14 A2983 RMK A01 T00501135  RH  025%=      5-min Rain = 0
KCL1 210701Z 17007KT 05/M14 A2983 RMK A01 T00501135  RH  025%=      5-min Rain = 0
KCL1 210702Z 17007KT 05/M14 A2983 RMK A01 T00501135  RH  025%=      5-min Rain = 0
KCL1 210703Z 17009KT 05/M14 A2983 RMK A01 T00501135  RH  025%=      5-min Rain = 0
KCL1 210704Z 17007KT 05/M14 A2983 RMK A01 T00501135  RH  025%=      5-min Rain = 0
KCL1 210705Z 16009KT 05/M14 A2983 RMK A01 T00501135  RH  025%=      5-min Rain = 0
KCL1 210706Z 17008KT 05/M13 A2983 RMK A01 T00501134  RH  025%=      5-min Rain = 0
KCL1 210707Z 17008KT 05/M13 A2983 RMK A01 T00511133  RH  025%=      5-min Rain = 0
KCL1 210708Z 17007KT 05/M13 A2983 RMK A01 T00511133  RH  025%=      5-min Rain = 0
KCL1 210709Z 17008KT 05/M13 A2983 RMK A01 T00501134  RH  025%=      5-min Rain = 0
KCL1 210710Z 17009KT 05/M13 A2983 RMK A01 T00501134  RH  025%=      5-min Rain = 0
KCL1 210711Z 17009KT 05/M13 A2983 RMK A01 T00511133  RH  025%=      5-min Rain = 0
KCL1 210712Z 17008KT 05/M13 A2983 RMK A01 T00501134  RH  025%=      5-min Rain = 0
KCL1 210713Z 17008KT 05/M13 A2983 RMK A01 T00501134  RH  025%=      5-min Rain = 0
KCL1 210714Z 17007KT 05/M13 A2983 RMK A01 T00491134  RH  025%=      5-min Rain = 0
KCL1 210715Z 17008KT 05/M13 A2983 RMK A01 T00491133  RH  025%=      5-min Rain = 0
KCL1 210718Z 17007KT 05/M13 A2983 RMK A01 T00491133  RH  025%=      5-min Rain = 0
KCL1 210719Z 17006KT 05/M13 A2983 RMK A01 T00491133  RH  025%=      5-min Rain = 0
KCL1 210720Z 17006KT 05/M13 A2983 RMK A01 T00481134  RH  025%=      5-min Rain = 0
KCL1 210721Z 17006KT 05/M13 A2983 RMK A01 T00491133  RH  025%=      5-min Rain = 0
KCL1 210722Z 16005KT 05/M13 A2983 RMK A01 T00481134  RH  025%=      5-min Rain = 0
KCL1 210723Z 16006KT 05/M13 A2983 RMK A01 T00471134  RH  026%=      5-min Rain = 0
KCL1 210724Z 16007KT 05/M13 A2983 RMK A01 T00461133  RH  026%=      5-min Rain = 0
KCL1 210725Z 17007KT 05/M13 A2983 RMK A01 T00471133  RH  026%=      5-min Rain = 0
KCL1 210731Z 17008KT 05/M13 A2983 RMK A01 T00471132  RH  026%=      5-min Rain = 0
KCL1 210732Z 16007KT 05/M13 A2983 RMK A01 T00481130  RH  026%=      5-min Rain = 0
KCL1 210733Z 17007KT 05/M13 A2983 RMK A01 T00481131  RH  026%=      5-min Rain = 0
KCL1 210734Z 16007KT 05/M13 A2983 RMK A01 T00491130  RH  026%=      5-min Rain = 0
KCL1 210735Z 16007KT 05/M13 A2983 RMK A01 T00481130  RH  026%=      5-min Rain = 0
KCL1 210736Z 16008KT 05/M13 A2983 RMK A01 T00491129  RH  026%=      5-min Rain = 0
KCL1 210737Z 17007KT 05/M13 A2982 RMK A01 T00501128  RH  026%=      5-min Rain = 0
KCL1 210738Z 17006KT 05/M13 A2982 RMK A01 T00501128  RH  026%=      5-min Rain = 0
KCL1 210739Z 18007KT 05/M13 A2982 RMK A01 T00501127  RH  026%=      5-min Rain = 0
KCL1 210740Z 17006KT 05/M13 A2982 RMK A01 T00501127  RH  027%=      5-min Rain = 0
KCL1 210741Z 17007KT 05/M13 A2982 RMK A01 T00501126  RH  027%=      5-min Rain = 0
KCL1 210742Z 17007KT 05/M13 A2982 RMK A01 T00491126  RH  027%=      5-min Rain = 0
KCL1 210743Z 16006KT 05/M13 A2982 RMK A01 T00491125  RH  027%=      5-min Rain = 0
KCL1 210744Z 17007KT 05/M13 A2982 RMK A01 T00491125  RH  027%=      5-min Rain = 0
KCL1 210745Z 16007KT 05/M12 A2982 RMK A01 T00501124  RH  027%=      5-min Rain = 0
KCL1 210746Z 17006KT 05/M13 A2982 RMK A01 T00511125  RH  027%=      5-min Rain = 0
KCL1 210747Z 16006KT 05/M13 A2982 RMK A01 T00511125  RH  027%=      5-min Rain = 0
KCL1 210748Z 16005KT 05/M13 A2982 RMK A01 T00501126  RH  027%=      5-min Rain = 0
KCL1 210749Z 17004KT 05/M13 A2982 RMK A01 T00491126  RH  027%=      5-min Rain = 0
KCL1 210750Z 16005KT 05/M13 A2982 RMK A01 T00491126  RH  027%=      5-min Rain = 0
KCL1 210751Z 17005KT 05/M13 A2982 RMK A01 T00491125  RH  027%=      5-min Rain = 0
KCL1 210752Z 16006KT 05/M13 A2982 RMK A01 T00481125  RH  027%=      5-min Rain = 0
KCL1 210753Z 17006KT 05/M13 A2982 RMK A01 T00481125  RH  027%=      5-min Rain = 0
KCL1 210754Z 18005KT 05/M12 A2982 RMK A01 T00481124  RH  027%=      5-min Rain = 0
KCL1 210755Z 17006KT 05/M12 A2982 RMK A01 T00481124  RH  027%=      5-min Rain = 0
KCL1 210756Z 17006KT 05/M12 A2982 RMK A01 T00481124  RH  028%=      5-min Rain = 0
KCL1 210757Z 18006KT 05/M12 A2982 RMK A01 T00491123  RH  028%=      5-min Rain = 0
KCL1 210758Z 17006KT 05/M12 A2982 RMK A01 T00491122  RH  028%=      5-min Rain = 0
KCL1 210759Z 17007KT 05/M12 A2982 RMK A01 T00491121  RH  028%=      5-min Rain = 0
KCL1 210800Z 16007KT 05/M12 A2982 RMK A01 T00491120  RH  028%=      5-min Rain = 0
KCL1 210801Z 17007KT 05/M12 A2982 RMK A01 T00501119  RH  028%=      5-min Rain = 0
KCL1 210802Z 17006KT 05/M12 A2982 RMK A01 T00511118  RH  028%=      5-min Rain = 0
KCL1 210803Z 17006KT 05/M12 A2982 RMK A01 T00511118  RH  028%=      5-min Rain = 0
KCL1 210804Z 17006KT 05/M12 A2982 RMK A01 T00501118  RH  028%=      5-min Rain = 0
KCL1 210805Z 17006KT 05/M12 A2982 RMK A01 T00501118  RH  028%=      5-min Rain = 0
KCL1 210806Z 17006KT 05/M12 A2982 RMK A01 T00491119  RH  028%=      5-min Rain = 0
KCL1 210807Z 17006KT 05/M12 A2982 RMK A01 T00491119  RH  029%=      5-min Rain = 0
KCL1 210808Z 17006KT 05/M12 A2982 RMK A01 T00491118  RH  029%=      5-min Rain = 0
KCL1 210809Z 16008KT 05/M12 A2982 RMK A01 T00491118  RH  029%=      5-min Rain = 0
KCL1 210810Z 16007KT 05/M12 A2982 RMK A01 T00501116  RH  029%=      5-min Rain = 0
KCL1 210811Z 16007KT 05/M12 A2982 RMK A01 T00501116  RH  029%=      5-min Rain = 0
KCL1 210812Z 17008KT 05/M12 A2982 RMK A01 T00501115  RH  029%=      5-min Rain = 0
KCL1 210813Z 16008KT 05/M11 A2982 RMK A01 T00511113  RH  030%=      5-min Rain = 0
KCL1 210814Z 16009KT 05/M11 A2982 RMK A01 T00511112  RH  030%=      5-min Rain = 0
KCL1 210815Z 16008KT 05/M11 A2982 RMK A01 T00521110  RH  030%=      5-min Rain = 0
KCL1 210816Z 16010KT 05/M11 A2982 RMK A01 T00521109  RH  030%=      5-min Rain = 0
KCL1 210817Z 16009KT 05/M11 A2982 RMK A01 T00531107  RH  030%=      5-min Rain = 0
KCL1 210818Z 15009KT 05/M11 A2982 RMK A01 T00531107  RH  030%=      5-min Rain = 0
KCL1 210819Z 16009KT 05/M11 A2982 RMK A01 T00541107  RH  030%=      5-min Rain = 0
KCL1 210820Z 16009KT 06/M11 A2982 RMK A01 T00551105  RH  031%=      5-min Rain = 0
KCL1 210821Z 16008KT 06/M11 A2982 RMK A01 T00551105  RH  031%=      5-min Rain = 0
KCL1 210822Z 15008KT 06/M11 A2982 RMK A01 T00551105  RH  031%=      5-min Rain = 0
KCL1 210823Z 15009KT 06/M10 A2982 RMK A01 T00551104  RH  031%=      5-min Rain = 0
KCL1 210824Z 15009KT 06/M10 A2982 RMK A01 T00551104  RH  031%=      5-min Rain = 0
KCL1 210825Z 15011KT 05/M10 A2982 RMK A01 T00541103  RH  031%=      5-min Rain = 0
KCL1 210826Z 15009KT 06/M10 A2982 RMK A01 T00551102  RH  031%=      5-min Rain = 0
KCL1 210827Z 16010KT 06/M10 A2982 RMK A01 T00551101  RH  031%=      5-min Rain = 0
KCL1 210828Z 16011KT 06/M10 A2982 RMK A01 T00551100  RH  032%=      5-min Rain = 0
KCL1 210829Z 16009KT 06/M10 A2982 RMK A01 T00561099  RH  032%=      5-min Rain = 0
KCL1 210830Z 16010KT 06/M10 A2982 RMK A01 T00561098  RH  032%=      5-min Rain = 0
KCL1 210831Z 15010KT 06/M10 A2982 RMK A01 T00561099  RH  032%=      5-min Rain = 0
KCL1 210832Z 15010KT 06/M10 A2982 RMK A01 T00551100  RH  032%=      5-min Rain = 0
KCL1 210833Z 15010KT 06/M10 A2982 RMK A01 T00551099  RH  032%=      5-min Rain = 0
KCL1 210834Z 16009KT 06/M10 A2982 RMK A01 T00551099  RH  032%=      5-min Rain = 0
KCL1 210835Z 16011KT 06/M10 A2982 RMK A01 T00551097  RH  032%=      5-min Rain = 0
KCL1 210836Z 16012KT 06/M10 A2982 RMK A01 T00561096  RH  033%=      5-min Rain = 0
KCL1 210837Z 15010KT 06/M10 A2982 RMK A01 T00561097  RH  032%=      5-min Rain = 0
KCL1 210838Z 15009KT 06/M10 A2982 RMK A01 T00561096  RH  032%=      5-min Rain = 0
KCL1 210839Z 15010KT 06/M10 A2982 RMK A01 T00561097  RH  032%=      5-min Rain = 0
KCL1 210840Z 16010KT 06/M10 A2982 RMK A01 T00561097  RH  032%=      5-min Rain = 0
KCL1 210841Z 15010KT 06/M10 A2982 RMK A01 T00561096  RH  032%=      5-min Rain = 0
KCL1 210842Z 15011KT 06/M10 A2982 RMK A01 T00561096  RH  033%=      5-min Rain = 0
KCL1 210843Z 15010KT 06/M10 A2982 RMK A01 T00571095  RH  033%=      5-min Rain = 0
KCL1 210844Z 15012KT 06/M10 A2982 RMK A01 T00571095  RH  033%=      5-min Rain = 0
KCL1 210845Z 15010KT 06/M10 A2982 RMK A01 T00571095  RH  033%=      5-min Rain = 0
KCL1 210846Z 16010KT 06/M10 A2982 RMK A01 T00571096  RH  033%=      5-min Rain = 0
KCL1 210847Z 16011KT 06/M09 A2982 RMK A01 T00571094  RH  033%=      5-min Rain = 0
KCL1 210848Z 15010KT 06/M09 A2982 RMK A01 T00571093  RH  033%=      5-min Rain = 0
KCL1 210849Z 16009KT 06/M09 A2982 RMK A01 T00571093  RH  033%=      5-min Rain = 0
KCL1 210850Z 16007KT 06/M09 A2982 RMK A01 T00571093  RH  033%=      5-min Rain = 0
KCL1 210851Z 16010KT 06/M09 A2982 RMK A01 T00561094  RH  033%=      5-min Rain = 0
KCL1 210852Z 16010KT 06/M09 A2982 RMK A01 T00561093  RH  033%=      5-min Rain = 0
KCL1 210853Z 16010KT 06/M09 A2982 RMK A01 T00561093  RH  033%=      5-min Rain = 0
KCL1 210854Z 16010KT 06/M09 A2982 RMK A01 T00561092  RH  033%=      5-min Rain = 0
KCL1 210855Z 16012KT 06/M09 A2982 RMK A01 T00571092  RH  034%=      5-min Rain = 0
KCL1 210856Z 16010KT 06/M09 A2982 RMK A01 T00571091  RH  034%=      5-min Rain = 0
KCL1 210857Z 16009KT 06/M09 A2982 RMK A01 T00571091  RH  034%=      5-min Rain = 0
KCL1 210858Z 15010KT 06/M09 A2982 RMK A01 T00571091  RH  034%=      5-min Rain = 0
KCL1 210859Z 15008KT 06/M09 A2982 RMK A01 T00571090  RH  034%=      5-min Rain = 0
KCL1 210900Z 15009KT 06/M09 A2982 RMK A01 T00571090  RH  034%=      5-min Rain = 0
KCL1 210901Z 15009KT 06/M09 A2982 RMK A01 T00561090  RH  034%=      5-min Rain = 0
KCL1 210902Z 15011KT 06/M09 A2982 RMK A01 T00561089  RH  034%=      5-min Rain = 0
KCL1 210903Z 15009KT 06/M09 A2982 RMK A01 T00561088  RH  035%=      5-min Rain = 0
KCL1 210904Z 15008KT 06/M09 A2982 RMK A01 T00561088  RH  035%=      5-min Rain = 0
KCL1 210905Z 15007KT 06/M09 A2982 RMK A01 T00561088  RH  035%=      5-min Rain = 0
KCL1 210906Z 15007KT 06/M09 A2982 RMK A01 T00561088  RH  035%=      5-min Rain = 0
KCL1 210907Z 15009KT 06/M09 A2982 RMK A01 T00551088  RH  035%=      5-min Rain = 0
KCL1 210908Z 16009KT 06/M09 A2982 RMK A01 T00551087  RH  035%=      5-min Rain = 0
KCL1 210909Z 16011KT 06/M09 A2982 RMK A01 T00551087  RH  035%=      5-min Rain = 0
KCL1 210910Z 16010KT 06/M09 A2982 RMK A01 T00561086  RH  035%=      5-min Rain = 0
KCL1 210911Z 16008KT 06/M09 A2982 RMK A01 T00571085  RH  035%=      5-min Rain = 0
KCL1 210912Z 17008KT 06/M09 A2982 RMK A01 T00571085  RH  035%=      5-min Rain = 0
KCL1 210913Z 16008KT 06/M09 A2982 RMK A01 T00571085  RH  035%=      5-min Rain = 0
KCL1 210914Z 17008KT 06/M09 A2982 RMK A01 T00571085  RH  035%=      5-min Rain = 0
KCL1 210915Z 17009KT 06/M09 A2982 RMK A01 T00571085  RH  035%=      5-min Rain = 0
KCL1 210916Z 16008KT 06/M09 A2982 RMK A01 T00571085  RH  035%=      5-min Rain = 0
KCL1 210917Z 17007KT 06/M09 A2982 RMK A01 T00571085  RH  035%=      5-min Rain = 0
KCL1 210918Z 16008KT 06/M09 A2982 RMK A01 T00571085  RH  035%=      5-min Rain = 0
KCL1 210919Z 16008KT 06/M09 A2982 RMK A01 T00561085  RH  035%=      5-min Rain = 0
KCL1 210920Z 16008KT 06/M09 A2982 RMK A01 T00561086  RH  035%=      5-min Rain = 0
KCL1 210921Z 17009KT 06/M09 A2982 RMK A01 T00561085  RH  035%=      5-min Rain = 0
KCL1 210922Z 17007KT 06/M08 A2982 RMK A01 T00571084  RH  036%=      5-min Rain = 0
KCL1 210923Z 17009KT 06/M08 A2982 RMK A01 T00581083  RH  036%=      5-min Rain = 0
KCL1 210924Z 17009KT 06/M08 A2982 RMK A01 T00581081  RH  036%=      5-min Rain = 0
KCL1 210925Z 17008KT 06/M08 A2983 RMK A01 T00591081  RH  036%=      5-min Rain = 0
KCL1 210926Z 17007KT 06/M08 A2983 RMK A01 T00601080  RH  036%=      5-min Rain = 0
KCL1 210927Z 16009KT 06/M08 A2982 RMK A01 T00601080  RH  036%=      5-min Rain = 0
KCL1 210928Z 17010KT 06/M08 A2982 RMK A01 T00601080  RH  036%=      5-min Rain = 0
KCL1 210929Z 16011KT 06/M08 A2982 RMK A01 T00601080  RH  036%=      5-min Rain = 0
KCL1 210930Z 16009KT 06/M08 A2982 RMK A01 T00601079  RH  036%=      5-min Rain = 0
KCL1 210931Z 17009KT 06/M08 A2982 RMK A01 T00601079  RH  036%=      5-min Rain = 0
KCL1 210932Z 17010KT 06/M08 A2982 RMK A01 T00601079  RH  036%=      5-min Rain = 0
KCL1 210933Z 17010KT 06/M08 A2982 RMK A01 T00601078  RH  037%=      5-min Rain = 0
KCL1 210934Z 16009KT 06/M08 A2982 RMK A01 T00601075  RH  037%=      5-min Rain = 0
KCL1 210935Z 17012KT 06/M07 A2982 RMK A01 T00611074  RH  037%=      5-min Rain = 0
KCL1 210936Z 16009KT 06/M07 A2982 RMK A01 T00611074  RH  037%=      5-min Rain = 0
KCL1 210937Z 16009KT 06/M08 A2982 RMK A01 T00611075  RH  037%=      5-min Rain = 0
KCL1 210938Z 16011KT 06/M08 A2982 RMK A01 T00611075  RH  037%=      5-min Rain = 0
KCL1 210939Z 16008KT 06/M07 A2982 RMK A01 T00601072  RH  038%=      5-min Rain = 0
KCL1 210940Z 16008G13KT 06/M07 A2982 RMK A01 T00601073  RH  038%=      5-min Rain = 0
KCL1 210941Z 17012KT 06/M07 A2982 RMK A01 T00601070  RH  039%=      5-min Rain = 0
KCL1 210942Z 16009KT 06/M07 A2982 RMK A01 T00611066  RH  040%=      5-min Rain = 0
KCL1 210943Z 16008KT 06/M07 A2982 RMK A01 T00621068  RH  039%=      5-min Rain = 0
KCL1 210944Z 18009G15KT 06/M07 A2982 RMK A01 T00621069  RH  039%=      5-min Rain = 0
KCL1 210945Z 17010G15KT 06/M07 A2982 RMK A01 T00611067  RH  039%=      5-min Rain = 0
KCL1 210946Z 17010KT 06/M07 A2982 RMK A01 T00621066  RH  039%=      5-min Rain = 0
KCL1 210947Z 17010KT 06/M07 A2982 RMK A01 T00621067  RH  039%=      5-min Rain = 0
KCL1 210948Z 17011KT 06/M07 A2982 RMK A01 T00621065  RH  040%=      5-min Rain = 0
KCL1 210949Z 17010KT 06/M06 A2982 RMK A01 T00631064  RH  040%=      5-min Rain = 0
KCL1 210950Z 16013KT 06/M07 A2982 RMK A01 T00631066  RH  039%=      5-min Rain = 0
KCL1 210951Z 16012KT 06/M07 A2982 RMK A01 T00631067  RH  039%=      5-min Rain = 0
KCL1 210952Z 17010KT 06/M07 A2982 RMK A01 T00621066  RH  039%=      5-min Rain = 0
KCL1 210953Z 16012KT 06/M06 A2982 RMK A01 T00631064  RH  040%=      5-min Rain = 0
KCL1 210954Z 18010KT 06/M06 A2982 RMK A01 T00631063  RH  040%=      5-min Rain = 0
KCL1 210955Z 18011KT 06/M06 A2982 RMK A01 T00641064  RH  040%=      5-min Rain = 0
KCL1 210956Z 17010KT 06/M07 A2982 RMK A01 T00631066  RH  039%=      5-min Rain = 0
KCL1 210957Z 17014G19KT 06/M07 A2982 RMK A01 T00631067  RH  039%=      5-min Rain = 0
KCL1 210958Z 17012KT 06/M07 A2982 RMK A01 T00631068  RH  039%=      5-min Rain = 0
KCL1 210959Z 17010KT 06/M07 A2982 RMK A01 T00621069  RH  039%=      5-min Rain = 0
KCL1 211000Z 17009KT 06/M07 A2982 RMK A01 T00611069  RH  039%=      5-min Rain = 0
KCL1 211001Z 17007KT 06/M07 A2982 RMK A01 T00611068  RH  039%=      5-min Rain = 0
KCL1 211002Z 17009KT 06/M07 A2982 RMK A01 T00601068  RH  039%=      5-min Rain = 0
KCL1 211003Z 17011KT 06/M07 A2982 RMK A01 T00601066  RH  040%=      5-min Rain = 0
KCL1 211004Z 17011KT 06/M07 A2982 RMK A01 T00611065  RH  040%=      5-min Rain = 0
KCL1 211005Z 17011KT 06/M07 A2982 RMK A01 T00611066  RH  040%=      5-min Rain = 0
KCL1 211006Z 18009KT 06/M07 A2982 RMK A01 T00611067  RH  039%=      5-min Rain = 0
KCL1 211007Z 17009KT 06/M07 A2982 RMK A01 T00611066  RH  040%=      5-min Rain = 0
KCL1 211008Z 17012G17KT 06/M07 A2982 RMK A01 T00611065  RH  040%=      5-min Rain = 0
KCL1 211009Z 17008KT 06/M06 A2982 RMK A01 T00611064  RH  040%=      5-min Rain = 0
KCL1 211010Z 18007KT 06/M07 A2982 RMK A01 T00611065  RH  040%=      5-min Rain = 0
KCL1 211011Z 17010KT 06/M07 A2982 RMK A01 T00601066  RH  040%=      5-min Rain = 0
KCL1 211012Z 17009KT 06/M07 A2982 RMK A01 T00601065  RH  040%=      5-min Rain = 0
KCL1 211013Z 18010KT 06/M06 A2982 RMK A01 T00611064  RH  040%=      5-min Rain = 0
KCL1 211014Z 16010KT 06/M06 A2982 RMK A01 T00611064  RH  040%=      5-min Rain = 0
KCL1 211015Z 16009KT 06/M06 A2982 RMK A01 T00601064  RH  040%=      5-min Rain = 0
KCL1 211016Z 17010KT 06/M07 A2982 RMK A01 T00601065  RH  040%=      5-min Rain = 0
KCL1 211017Z 17009KT 06/M06 A2982 RMK A01 T00601064  RH  040%=      5-min Rain = 0
KCL1 211018Z 18014KT 06/M06 A2982 RMK A01 T00601063  RH  041%=      5-min Rain = 0
KCL1 211019Z 18012KT 06/M06 A2982 RMK A01 T00611061  RH  041%=      5-min Rain = 0
KCL1 211020Z 17014KT 06/M06 A2982 RMK A01 T00621061  RH  041%=      5-min Rain = 0
KCL1 211021Z 18012KT 06/M06 A2982 RMK A01 T00631059  RH  041%=      5-min Rain = 0
KCL1 211022Z 17008KT 06/M06 A2982 RMK A01 T00631059  RH  041%=      5-min Rain = 0
KCL1 211023Z 17010KT 06/M06 A2982 RMK A01 T00631060  RH  041%=      5-min Rain = 0
KCL1 211024Z 17009KT 06/M06 A2982 RMK A01 T00621061  RH  041%=      5-min Rain = 0
KCL1 211025Z 17010KT 06/M06 A2982 RMK A01 T00621061  RH  041%=      5-min Rain = 0
KCL1 211026Z 17009G14KT 06/M06 A2982 RMK A01 T00611061  RH  041%=      5-min Rain = 0
KCL1 211027Z 17008G13KT 06/M06 A2982 RMK A01 T00611062  RH  041%=      5-min Rain = 0
KCL1 211028Z 16009G14KT 06/M06 A2982 RMK A01 T00601062  RH  041%=      5-min Rain = 0
KCL1 211029Z 17010KT 06/M06 A2982 RMK A01 T00601063  RH  041%=      5-min Rain = 0
KCL1 211030Z 16007G13KT 06/M06 A2982 RMK A01 T00601062  RH  041%=      5-min Rain = 0
KCL1 211031Z 17008KT 06/M06 A2982 RMK A01 T00601062  RH  041%=      5-min Rain = 0
KCL1 211032Z 17008KT 06/M06 A2982 RMK A01 T00601061  RH  041%=      5-min Rain = 0
KCL1 211033Z 18012G18KT 06/M06 A2982 RMK A01 T00601061  RH  042%=      5-min Rain = 0
KCL1 211034Z 15010G15KT 06/M06 A2982 RMK A01 T00601061  RH  041%=      5-min Rain = 0
KCL1 211035Z 17014G22KT 06/M06 A2982 RMK A01 T00611061  RH  041%=      5-min Rain = 0
KCL1 211036Z 19015KT 06/M06 A2982 RMK A01 T00611061  RH  041%=      5-min Rain = 0
KCL1 211037Z 17011KT 06/M06 A2982 RMK A01 T00621058  RH  042%=      5-min Rain = 0
KCL1 211038Z 17011KT 06/M06 A2982 RMK A01 T00621059  RH  041%=      5-min Rain = 0
KCL1 211039Z 17013KT 06/M06 A2982 RMK A01 T00621060  RH  041%=      5-min Rain = 0
KCL1 211040Z 17013KT 06/M06 A2982 RMK A01 T00621061  RH  041%=      5-min Rain = 0
KCL1 211041Z 17009KT 06/M06 A2982 RMK A01 T00621062  RH  041%=      5-min Rain = 0
KCL1 211042Z 17009G14KT 06/M06 A2982 RMK A01 T00611064  RH  041%=      5-min Rain = 0
KCL1 211043Z 17008KT 06/M07 A2982 RMK A01 T00601065  RH  041%=      5-min Rain = 0
KCL1 211044Z 16009KT 06/M07 A2982 RMK A01 T00591065  RH  041%=      5-min Rain = 0
KCL1 211045Z 16008KT 06/M07 A2982 RMK A01 T00581065  RH  041%=      5-min Rain = 0
KCL1 211046Z 16007KT 06/M07 A2982 RMK A01 T00581065  RH  041%=      5-min Rain = 0
KCL1 211047Z 16008KT 06/M07 A2982 RMK A01 T00581065  RH  041%=      5-min Rain = 0
KCL1 211048Z 16009KT 06/M07 A2982 RMK A01 T00581065  RH  041%=      5-min Rain = 0
KCL1 211049Z 17008KT 06/M07 A2982 RMK A01 T00571065  RH  041%=      5-min Rain = 0
KCL1 211050Z 16008KT 06/M07 A2982 RMK A01 T00571065  RH  041%=      5-min Rain = 0
KCL1 211051Z 15012KT 06/M06 A2982 RMK A01 T00581064  RH  041%=      5-min Rain = 0
KCL1 211052Z 16010KT 06/M07 A2982 RMK A01 T00571065  RH  041%=      5-min Rain = 0
KCL1 211053Z 15010KT 06/M07 A2982 RMK A01 T00571065  RH  041%=      5-min Rain = 0
KCL1 211054Z 15010KT 06/M06 A2982 RMK A01 T00581064  RH  041%=      5-min Rain = 0
KCL1 211055Z 15008KT 06/M06 A2982 RMK A01 T00581064  RH  041%=      5-min Rain = 0
KCL1 211056Z 15009KT 06/M07 A2982 RMK A01 T00571065  RH  041%=      5-min Rain = 0
KCL1 211057Z 16009KT 06/M07 A2982 RMK A01 T00571065  RH  041%=      5-min Rain = 0
KCL1 211058Z 15010KT 06/M07 A2982 RMK A01 T00561065  RH  041%=      5-min Rain = 0
KCL1 211059Z 15007KT 06/M07 A2982 RMK A01 T00561066  RH  041%=      5-min Rain = 0
KCL1 211100Z 15006KT 06/M07 A2983 RMK A01 T00561066  RH  041%=      5-min Rain = 0
KCL1 211101Z 16008G13KT 06/M07 A2982 RMK A01 T00551066  RH  041%=      5-min Rain = 0
KCL1 211102Z 17009KT 05/M07 A2983 RMK A01 T00541066  RH  042%=      5-min Rain = 0
KCL1 211103Z 16008G13KT 05/M07 A2983 RMK A01 T00541066  RH  042%=      5-min Rain = 0
KCL1 211104Z 16011KT 05/M07 A2983 RMK A01 T00541066  RH  041%=      5-min Rain = 0
KCL1 211105Z 15009KT 06/M07 A2983 RMK A01 T00551066  RH  041%=      5-min Rain = 0
KCL1 211106Z 15008KT 06/M07 A2983 RMK A01 T00551066  RH  041%=      5-min Rain = 0
KCL1 211107Z 15006KT 06/M07 A2983 RMK A01 T00551066  RH  042%=      5-min Rain = 0
KCL1 211108Z 16008KT 05/M07 A2983 RMK A01 T00541066  RH  042%=      5-min Rain = 0
KCL1 211109Z 16011KT 05/M07 A2983 RMK A01 T00541066  RH  042%=      5-min Rain = 0
KCL1 211110Z 15011KT 05/M06 A2983 RMK A01 T00541064  RH  042%=      5-min Rain = 0
KCL1 211111Z 15011KT 06/M06 A2983 RMK A01 T00551064  RH  042%=      5-min Rain = 0
KCL1 211112Z 16010KT 06/M07 A2983 RMK A01 T00551065  RH  042%=      5-min Rain = 0
KCL1 211113Z 16009KT 06/M07 A2983 RMK A01 T00561065  RH  042%=      5-min Rain = 0
KCL1 211114Z 15007KT 06/M07 A2983 RMK A01 T00561065  RH  041%=      5-min Rain = 0
KCL1 211115Z 16007KT 06/M07 A2983 RMK A01 T00551065  RH  042%=      5-min Rain = 0
KCL1 211116Z 17006KT 05/M07 A2983 RMK A01 T00541065  RH  042%=      5-min Rain = 0
KCL1 211117Z 17006KT 05/M07 A2983 RMK A01 T00531066  RH  042%=      5-min Rain = 0
KCL1 211118Z 17006KT 05/M07 A2983 RMK A01 T00531066  RH  042%=      5-min Rain = 0
KCL1 211119Z 16006KT 05/M07 A2983 RMK A01 T00521066  RH  042%=      5-min Rain = 0
KCL1 211120Z 14008KT 05/M07 A2983 RMK A01 T00521066  RH  042%=      5-min Rain = 0
KCL1 211121Z 15009KT 05/M07 A2983 RMK A01 T00531065  RH  042%=      5-min Rain = 0
KCL1 211122Z 15013KT 05/M06 A2983 RMK A01 T00531064  RH  042%=      5-min Rain = 0
KCL1 211123Z 16010KT 05/M06 A2983 RMK A01 T00541064  RH  042%=      5-min Rain = 0
KCL1 211124Z 17007KT 06/M06 A2983 RMK A01 T00551064  RH  042%=      5-min Rain = 0
KCL1 211125Z 16007KT 06/M06 A2983 RMK A01 T00551064  RH  042%=      5-min Rain = 0
KCL1 211126Z 16009KT 06/M07 A2983 RMK A01 T00551065  RH  042%=      5-min Rain = 0
KCL1 211127Z 16009KT 05/M07 A2983 RMK A01 T00541065  RH  042%=      5-min Rain = 0
KCL1 211128Z 15010KT 06/M07 A2983 RMK A01 T00551065  RH  042%=      5-min Rain = 0
KCL1 211129Z 15009KT 06/M07 A2983 RMK A01 T00551065  RH  042%=      5-min Rain = 0
KCL1 211130Z 16011KT 05/M07 A2983 RMK A01 T00541065  RH  042%=      5-min Rain = 0
KCL1 211131Z 16008KT 05/M07 A2983 RMK A01 T00541065  RH  042%=      5-min Rain = 0
KCL1 211132Z 15011KT 06/M06 A2983 RMK A01 T00551064  RH  042%=      5-min Rain = 0
KCL1 211133Z 16010KT 06/M06 A2983 RMK A01 T00551064  RH  042%=      5-min Rain = 0
KCL1 211134Z 17007KT 06/M06 A2983 RMK A01 T00561064  RH  042%=      5-min Rain = 0
KCL1 211135Z 16006KT 06/M07 A2983 RMK A01 T00561065  RH  041%=      5-min Rain = 0
KCL1 211136Z 16008KT 05/M07 A2983 RMK A01 T00541066  RH  041%=      5-min Rain = 0
KCL1 211137Z 16005KT 05/M07 A2983 RMK A01 T00541066  RH  042%=      5-min Rain = 0
KCL1 211138Z 16005KT 05/M07 A2983 RMK A01 T00541065  RH  042%=      5-min Rain = 0
KCL1 211139Z 15005KT 05/M07 A2983 RMK A01 T00541066  RH  042%=      5-min Rain = 0
KCL1 211140Z 16005KT 05/M07 A2983 RMK A01 T00541065  RH  042%=      5-min Rain = 0
KCL1 211141Z 15005KT 05/M07 A2983 RMK A01 T00531066  RH  042%=      5-min Rain = 0
KCL1 211142Z 16007KT 05/M07 A2983 RMK A01 T00521066  RH  042%=      5-min Rain = 0
KCL1 211143Z 16007KT 05/M07 A2984 RMK A01 T00521066  RH  042%=      5-min Rain = 0
KCL1 211144Z 15007KT 05/M07 A2983 RMK A01 T00521066  RH  042%=      5-min Rain = 0
KCL1 211145Z 15007KT 05/M07 A2983 RMK A01 T00521065  RH  042%=      5-min Rain = 0
KCL1 211146Z 16011KT 05/M07 A2983 RMK A01 T00531065  RH  042%=      5-min Rain = 0
KCL1 211147Z 16010KT 05/M07 A2983 RMK A01 T00531066  RH  042%=      5-min Rain = 0
KCL1 211148Z 16010KT 05/M07 A2983 RMK A01 T00541066  RH  042%=      5-min Rain = 0
KCL1 211149Z 15008KT 05/M07 A2983 RMK A01 T00541066  RH  042%=      5-min Rain = 0
KCL1 211150Z 16009KT 06/M07 A2983 RMK A01 T00551066  RH  041%=      5-min Rain = 0
KCL1 211151Z 16009KT 06/M07 A2983 RMK A01 T00551066  RH  041%=      5-min Rain = 0
KCL1 211152Z 14008KT 05/M07 A2983 RMK A01 T00541066  RH  041%=      5-min Rain = 0
KCL1 211153Z 15010KT 06/M07 A2983 RMK A01 T00551066  RH  041%=      5-min Rain = 0
KCL1 211154Z 15010KT 05/M07 A2983 RMK A01 T00541066  RH  041%=      5-min Rain = 0
KCL1 211155Z 16011KT 05/M07 A2983 RMK A01 T00541067  RH  041%=      5-min Rain = 0
KCL1 211156Z 15008KT 05/M07 A2983 RMK A01 T00541067  RH  041%=      5-min Rain = 0
KCL1 211157Z 14009KT 05/M07 A2983 RMK A01 T00541067  RH  041%=      5-min Rain = 0
KCL1 211158Z 15009KT 05/M07 A2983 RMK A01 T00541068  RH  041%=      5-min Rain = 0
KCL1 211159Z 16007KT 05/M07 A2983 RMK A01 T00541068  RH  041%=      5-min Rain = 0
KCL1 211200Z 15009KT 05/M07 A2983 RMK A01 T00531068  RH  041%=      5-min Rain = 0
KCL1 211201Z 15011KT 05/M07 A2983 RMK A01 T00531068  RH  041%=      5-min Rain = 0
KCL1 211202Z 16009KT 05/M07 A2983 RMK A01 T00531068  RH  041%=      5-min Rain = 0
KCL1 211203Z 16008KT 05/M07 A2983 RMK A01 T00531069  RH  041%=      5-min Rain = 0
KCL1 211204Z 15009KT 05/M07 A2983 RMK A01 T00531069  RH  041%=      5-min Rain = 0
KCL1 211205Z 15010KT 05/M07 A2983 RMK A01 T00531069  RH  041%=      5-min Rain = 0
KCL1 211206Z 15009KT 05/M07 A2983 RMK A01 T00531069  RH  041%=      5-min Rain = 0
KCL1 211207Z 16009KT 05/M07 A2983 RMK A01 T00531070  RH  041%=      5-min Rain = 0
KCL1 211208Z 16008KT 05/M07 A2983 RMK A01 T00531069  RH  041%=      5-min Rain = 0
KCL1 211209Z 16007KT 05/M07 A2983 RMK A01 T00531069  RH  041%=      5-min Rain = 0
KCL1 211210Z 17008KT 05/M07 A2983 RMK A01 T00531070  RH  041%=      5-min Rain = 0
KCL1 211211Z 17008KT 05/M07 A2983 RMK A01 T00521070  RH  041%=      5-min Rain = 0
KCL1 211212Z 17008KT 05/M07 A2983 RMK A01 T00521070  RH  041%=      5-min Rain = 0
KCL1 211213Z 16006KT 05/M07 A2983 RMK A01 T00521070  RH  041%=      5-min Rain = 0
KCL1 211214Z 17009KT 05/M07 A2983 RMK A01 T00521070  RH  041%=      5-min Rain = 0
KCL1 211215Z 17010KT 05/M07 A2983 RMK A01 T00521071  RH  041%=      5-min Rain = 0
KCL1 211216Z 17009KT 05/M07 A2983 RMK A01 T00521071  RH  041%=      5-min Rain = 0
KCL1 211217Z 17009KT 05/M07 A2983 RMK A01 T00521071  RH  041%=      5-min Rain = 0
KCL1 211218Z 16011KT 05/M07 A2983 RMK A01 T00521071  RH  041%=      5-min Rain = 0
KCL1 211219Z 16009KT 05/M07 A2983 RMK A01 T00521070  RH  041%=      5-min Rain = 0
KCL1 211220Z 15008KT 05/M07 A2983 RMK A01 T00521070  RH  041%=      5-min Rain = 0
KCL1 211221Z 15009KT 05/M07 A2983 RMK A01 T00521070  RH  041%=      5-min Rain = 0
KCL1 211222Z 16008KT 05/M07 A2984 RMK A01 T00521070  RH  041%=      5-min Rain = 0
KCL1 211223Z 16008KT 05/M07 A2984 RMK A01 T00521070  RH  041%=      5-min Rain = 0
KCL1 211224Z 15009KT 05/M07 A2983 RMK A01 T00511071  RH  041%=      5-min Rain = 0
KCL1 211225Z 15011KT 05/M07 A2983 RMK A01 T00501071  RH  041%=      5-min Rain = 0
KCL1 211226Z 17009KT 05/M07 A2984 RMK A01 T00501071  RH  041%=      5-min Rain = 0
KCL1 211227Z 16009KT 05/M07 A2984 RMK A01 T00501071  RH  041%=      5-min Rain = 0
KCL1 211228Z 16009KT 05/M07 A2984 RMK A01 T00501071  RH  041%=      5-min Rain = 0
KCL1 211229Z 16009KT 05/M07 A2984 RMK A01 T00501072  RH  041%=      5-min Rain = 0
KCL1 211230Z 15007KT 05/M07 A2983 RMK A01 T00501073  RH  041%=      5-min Rain = 0
KCL1 211231Z 15007KT 05/M07 A2984 RMK A01 T00491073  RH  041%=      5-min Rain = 0
KCL1 211232Z 15007KT 05/M07 A2983 RMK A01 T00481074  RH  041%=      5-min Rain = 0
KCL1 211233Z 15008KT 05/M07 A2983 RMK A01 T00471074  RH  041%=      5-min Rain = 0
KCL1 211234Z 16008KT 05/M08 A2983 RMK A01 T00471075  RH  041%=      5-min Rain = 0
KCL1 211235Z 15007KT 05/M08 A2983 RMK A01 T00461075  RH  041%=      5-min Rain = 0
KCL1 211236Z 15007KT 05/M08 A2983 RMK A01 T00461075  RH  041%=      5-min Rain = 0
KCL1 211237Z 15008KT 05/M08 A2983 RMK A01 T00461075  RH  041%=      5-min Rain = 0
KCL1 211238Z 15008KT 05/M08 A2983 RMK A01 T00451075  RH  041%=      5-min Rain = 0
KCL1 211239Z 15006KT 05/M08 A2983 RMK A01 T00451075  RH  041%=      5-min Rain = 0
KCL1 211240Z 15006KT 05/M08 A2984 RMK A01 T00451076  RH  041%=      5-min Rain = 0
KCL1 211241Z 15008KT 04/M08 A2984 RMK A01 T00441076  RH  041%=      5-min Rain = 0
KCL1 211242Z 15008KT 04/M08 A2983 RMK A01 T00431076  RH  041%=      5-min Rain = 0
KCL1 211243Z 15007KT 04/M08 A2983 RMK A01 T00431077  RH  041%=      5-min Rain = 0
KCL1 211244Z 15006KT 04/M08 A2983 RMK A01 T00431077  RH  041%=      5-min Rain = 0
KCL1 211245Z 16007KT 04/M08 A2983 RMK A01 T00431077  RH  041%=      5-min Rain = 0
KCL1 211246Z 15007KT 04/M08 A2983 RMK A01 T00421077  RH  042%=      5-min Rain = 0
KCL1 211247Z 14006KT 04/M08 A2983 RMK A01 T00421077  RH  042%=      5-min Rain = 0
KCL1 211248Z 14007KT 04/M08 A2983 RMK A01 T00421077  RH  042%=      5-min Rain = 0
KCL1 211249Z 15008KT 04/M08 A2983 RMK A01 T00421078  RH  042%=      5-min Rain = 0
KCL1 211250Z 14008KT 04/M08 A2983 RMK A01 T00421077  RH  042%=      5-min Rain = 0
KCL1 211251Z 15008KT 04/M08 A2983 RMK A01 T00421077  RH  042%=      5-min Rain = 0
KCL1 211252Z 16008KT 04/M08 A2983 RMK A01 T00421077  RH  042%=      5-min Rain = 0
KCL1 211253Z 15007KT 04/M08 A2983 RMK A01 T00421077  RH  042%=      5-min Rain = 0
KCL1 211254Z 14008KT 04/M08 A2983 RMK A01 T00431077  RH  041%=      5-min Rain = 0
KCL1 211255Z 14008KT 04/M08 A2983 RMK A01 T00431076  RH  042%=      5-min Rain = 0
KCL1 211256Z 15008KT 04/M08 A2983 RMK A01 T00431076  RH  042%=      5-min Rain = 0
KCL1 211257Z 15007KT 04/M08 A2983 RMK A01 T00431076  RH  042%=      5-min Rain = 0
KCL1 211258Z 14009KT 04/M08 A2983 RMK A01 T00431076  RH  042%=      5-min Rain = 0
KCL1 211259Z 15010KT 04/M08 A2983 RMK A01 T00431076  RH  042%=      5-min Rain = 0
KCL1 211300Z 14008KT 04/M08 A2983 RMK A01 T00431077  RH  041%=      5-min Rain = 0
KCL1 211301Z 14008KT 04/M08 A2983 RMK A01 T00431077  RH  041%=      5-min Rain = 0
KCL1 211302Z 15009KT 04/M08 A2983 RMK A01 T00431077  RH  041%=      5-min Rain = 0
KCL1 211303Z 15008KT 04/M08 A2983 RMK A01 T00431077  RH  041%=      5-min Rain = 0
KCL1 211304Z 15008KT 04/M08 A2983 RMK A01 T00431077  RH  041%=      5-min Rain = 0
KCL1 211305Z 15008KT 04/M08 A2983 RMK A01 T00431077  RH  042%=      5-min Rain = 0
KCL1 211306Z 15007KT 04/M08 A2983 RMK A01 T00431077  RH  041%=      5-min Rain = 0
KCL1 211307Z 16005KT 04/M08 A2983 RMK A01 T00421078  RH  041%=      5-min Rain = 0
KCL1 211308Z 15006KT 04/M08 A2982 RMK A01 T00411079  RH  041%=      5-min Rain = 0
KCL1 211309Z 15006KT 04/M08 A2982 RMK A01 T00411080  RH  041%=      5-min Rain = 0
KCL1 211310Z 15007KT 04/M08 A2982 RMK A01 T00411080  RH  041%=      5-min Rain = 0
KCL1 211311Z 15005KT 04/M08 A2982 RMK A01 T00411081  RH  041%=      5-min Rain = 0
KCL1 211312Z 15006KT 04/M08 A2982 RMK A01 T00401081  RH  041%=      5-min Rain = 0
KCL1 211313Z 16004KT 04/M08 A2982 RMK A01 T00401080  RH  041%=      5-min Rain = 0
KCL1 211314Z 16004KT 04/M08 A2982 RMK A01 T00401080  RH  041%=      5-min Rain = 0
KCL1 211315Z 16004KT 04/M08 A2982 RMK A01 T00401080  RH  041%=      5-min Rain = 0
KCL1 211316Z 16005KT 04/M08 A2982 RMK A01 T00401080  RH  041%=      5-min Rain = 0
KCL1 211317Z 16006KT 04/M08 A2982 RMK A01 T00391079  RH  042%=      5-min Rain = 0
KCL1 211318Z 16006KT 04/M08 A2982 RMK A01 T00401079  RH  042%=      5-min Rain = 0
KCL1 211319Z 15007KT 04/M08 A2982 RMK A01 T00401079  RH  042%=      5-min Rain = 0
KCL1 211320Z 16007KT 04/M08 A2982 RMK A01 T00411078  RH  042%=      5-min Rain = 0
KCL1 211321Z 16007KT 04/M08 A2982 RMK A01 T00411078  RH  042%=      5-min Rain = 0
KCL1 211322Z 17008KT 04/M08 A2983 RMK A01 T00411078  RH  041%=      5-min Rain = 0
KCL1 211323Z 18008KT 04/M08 A2983 RMK A01 T00421078  RH  041%=      5-min Rain = 0
KCL1 211324Z 19007KT 04/M08 A2983 RMK A01 T00421079  RH  041%=      5-min Rain = 0
KCL1 211325Z 20007KT 04/M08 A2983 RMK A01 T00411082  RH  040%=      5-min Rain = 0
KCL1 211326Z 23006KT 04/M08 A2983 RMK A01 T00391083  RH  040%=      5-min Rain = 0
KCL1 211327Z 24006KT 04/M08 A2983 RMK A01 T00381084  RH  040%=      5-min Rain = 0
KCL1 211328Z 23006KT 04/M09 A2984 RMK A01 T00361088  RH  040%=      5-min Rain = 0
KCL1 211329Z 23006KT 03/M09 A2984 RMK A01 T00341091  RH  040%=      5-min Rain = 0
KCL1 211330Z 23006KT 03/M09 A2984 RMK A01 T00331092  RH  040%=      5-min Rain = 0
KCL1 211331Z 23006KT 03/M09 A2984 RMK A01 T00321092  RH  040%=      5-min Rain = 0
KCL1 211332Z 23005KT 03/M09 A2984 RMK A01 T00311092  RH  040%=      5-min Rain = 0
KCL1 211333Z 21004KT 03/M09 A2983 RMK A01 T00311093  RH  040%=      5-min Rain = 0
KCL1 211334Z 21003KT 03/M09 A2983 RMK A01 T00301093  RH  040%=      5-min Rain = 0
KCL1 211335Z 22002KT 03/M09 A2984 RMK A01 T00301093  RH  040%=      5-min Rain = 0
KCL1 211336Z 22004KT 03/M09 A2984 RMK A01 T00301093  RH  040%=      5-min Rain = 0
KCL1 211337Z 22004KT 03/M09 A2984 RMK A01 T00301093  RH  040%=      5-min Rain = 0
KCL1 211338Z 24003KT 03/M09 A2984 RMK A01 T00291094  RH  040%=      5-min Rain = 0
KCL1 211339Z 25004KT 03/M09 A2984 RMK A01 T00291093  RH  040%=      5-min Rain = 0
KCL1 211340Z 27004KT 03/M09 A2984 RMK A01 T00291093  RH  040%=      5-min Rain = 0
KCL1 211341Z 25003KT 03/M09 A2983 RMK A01 T00291094  RH  040%=      5-min Rain = 0
KCL1 211342Z 23002KT 03/M09 A2983 RMK A01 T00291094  RH  040%=      5-min Rain = 0
KCL1 211343Z 22001KT 03/M09 A2983 RMK A01 T00291094  RH  040%=      5-min Rain = 0
KCL1 211344Z 17001KT 03/M09 A2983 RMK A01 T00281094  RH  040%=      5-min Rain = 0
KCL1 211345Z 16003KT 03/M09 A2983 RMK A01 T00281094  RH  040%=      5-min Rain = 0
KCL1 211346Z 15004KT 03/M09 A2983 RMK A01 T00281094  RH  040%=      5-min Rain = 0
KCL1 211347Z 15003KT 03/M09 A2983 RMK A01 T00281093  RH  040%=      5-min Rain = 0
KCL1 211348Z 16003KT 03/M09 A2983 RMK A01 T00281094  RH  040%=      5-min Rain = 0
KCL1 211349Z 15003KT 03/M09 A2983 RMK A01 T00281093  RH  040%=      5-min Rain = 0
KCL1 211350Z 14003KT 03/M09 A2983 RMK A01 T00281093  RH  040%=      5-min Rain = 0
KCL1 211351Z 14003KT 03/M09 A2982 RMK A01 T00281093  RH  041%=      5-min Rain = 0
KCL1 211352Z 17004KT 03/M09 A2983 RMK A01 T00281092  RH  041%=      5-min Rain = 0
KCL1 211353Z 16005KT 03/M09 A2983 RMK A01 T00271093  RH  041%=      5-min Rain = 0
KCL1 211354Z 15004KT 03/M09 A2983 RMK A01 T00261093  RH  041%=      5-min Rain = 0
KCL1 211355Z 16004KT 03/M09 A2983 RMK A01 T00271093  RH  041%=      5-min Rain = 0
KCL1 211356Z 17005KT 03/M09 A2983 RMK A01 T00271092  RH  041%=      5-min Rain = 0
KCL1 211357Z 18004KT 03/M09 A2983 RMK A01 T00261092  RH  041%=      5-min Rain = 0
KCL1 211358Z 17005KT 03/M09 A2983 RMK A01 T00271092  RH  041%=      5-min Rain = 0
KCL1 211359Z 16006KT 03/M09 A2983 RMK A01 T00261092  RH  041%=      5-min Rain = 0
KCL1 211400Z 17006KT 03/M09 A2983 RMK A01 T00261093  RH  041%=      5-min Rain = 0
KCL1 211401Z 18006KT 03/M09 A2983 RMK A01 T00251093  RH  041%=      5-min Rain = 0
KCL1 211402Z 19007KT 03/M09 A2984 RMK A01 T00261092  RH  041%=      5-min Rain = 0
KCL1 211403Z 19008KT 03/M09 A2984 RMK A01 T00251092  RH  042%=      5-min Rain = 0
KCL1 211404Z 19006KT 03/M09 A2984 RMK A01 T00261092  RH  041%=      5-min Rain = 0
KCL1 211405Z 18005KT 03/M09 A2984 RMK A01 T00261092  RH  042%=      5-min Rain = 0
KCL1 211406Z 17005KT 03/M09 A2984 RMK A01 T00261092  RH  041%=      5-min Rain = 0
KCL1 211407Z 17005KT 03/M09 A2984 RMK A01 T00271090  RH  042%=      5-min Rain = 0
KCL1 211408Z 18005KT 03/M09 A2984 RMK A01 T00281090  RH  041%=      5-min Rain = 0
KCL1 211409Z 17004KT 03/M09 A2984 RMK A01 T00291091  RH  041%=      5-min Rain = 0
KCL1 211410Z 14004KT 03/M09 A2984 RMK A01 T00291091  RH  041%=      5-min Rain = 0
KCL1 211411Z 14005KT 03/M09 A2984 RMK A01 T00291090  RH  041%=      5-min Rain = 0
KCL1 211412Z 14005KT 03/M09 A2984 RMK A01 T00281091  RH  041%=      5-min Rain = 0
KCL1 211413Z 13005KT 03/M09 A2983 RMK A01 T00281091  RH  041%=      5-min Rain = 0
KCL1 211414Z 13006KT 03/M09 A2983 RMK A01 T00281091  RH  041%=      5-min Rain = 0
KCL1 211415Z 13005KT 03/M09 A2984 RMK A01 T00281092  RH  041%=      5-min Rain = 0
KCL1 211416Z 14004KT 03/M09 A2984 RMK A01 T00271093  RH  041%=      5-min Rain = 0
KCL1 211417Z 14005KT 03/M09 A2984 RMK A01 T00271091  RH  041%=      5-min Rain = 0
KCL1 211418Z 15004KT 03/M09 A2984 RMK A01 T00271091  RH  041%=      5-min Rain = 0
KCL1 211419Z 17004KT 03/M09 A2984 RMK A01 T00271091  RH  041%=      5-min Rain = 0
KCL1 211420Z 19005KT 03/M09 A2984 RMK A01 T00281090  RH  042%=      5-min Rain = 0
KCL1 211421Z 20005KT 03/M09 A2985 RMK A01 T00281090  RH  041%=      5-min Rain = 0
KCL1 211422Z 20003KT 03/M09 A2985 RMK A01 T00281091  RH  041%=      5-min Rain = 0
KCL1 211423Z 18002KT 03/M09 A2984 RMK A01 T00281091  RH  041%=      5-min Rain = 0
KCL1 211424Z 16004KT 03/M09 A2985 RMK A01 T00281091  RH  041%=      5-min Rain = 0
KCL1 211425Z 16004KT 03/M09 A2985 RMK A01 T00281091  RH  041%=      5-min Rain = 0
KCL1 211426Z 18003KT 03/M09 A2985 RMK A01 T00291090  RH  041%=      5-min Rain = 0
KCL1 211427Z 20003KT 03/M09 A2985 RMK A01 T00291090  RH  041%=      5-min Rain = 0
KCL1 211428Z 19002KT 03/M09 A2985 RMK A01 T00301090  RH  041%=      5-min Rain = 0
KCL1 211429Z 19003KT 03/M09 A2985 RMK A01 T00301090  RH  041%=      5-min Rain = 0
KCL1 211430Z 17004KT 03/M09 A2985 RMK A01 T00301090  RH  041%=      5-min Rain = 0
KCL1 211431Z 18005KT 03/M09 A2985 RMK A01 T00301089  RH  041%=      5-min Rain = 0
KCL1 211432Z 19003KT 03/M09 A2985 RMK A01 T00301089  RH  041%=      5-min Rain = 0
KCL1 211433Z 20002KT 03/M09 A2985 RMK A01 T00311089  RH  041%=      5-min Rain = 0
KCL1 211434Z 22002KT 03/M09 A2985 RMK A01 T00301089  RH  041%=      5-min Rain = 0
KCL1 211435Z 20003KT 03/M09 A2985 RMK A01 T00311089  RH  041%=      5-min Rain = 0
KCL1 211436Z 18004KT 03/M09 A2986 RMK A01 T00311089  RH  041%=      5-min Rain = 0
KCL1 211437Z 19003KT 03/M09 A2986 RMK A01 T00311088  RH  041%=      5-min Rain = 0
KCL1 211438Z 20002KT 03/M09 A2986 RMK A01 T00321088  RH  041%=      5-min Rain = 0
KCL1 211439Z 18004KT 03/M09 A2986 RMK A01 T00321088  RH  041%=      5-min Rain = 0
KCL1 211440Z 19003KT 03/M09 A2986 RMK A01 T00321087  RH  041%=      5-min Rain = 0
KCL1 211441Z 18002KT 03/M09 A2986 RMK A01 T00331086  RH  041%=      5-min Rain = 0
KCL1 211442Z 20003KT 03/M09 A2986 RMK A01 T00341086  RH  041%=      5-min Rain = 0
KCL1 211443Z 22002KT 03/M09 A2986 RMK A01 T00341087  RH  041%=      5-min Rain = 0
KCL1 211444Z 23003KT 03/M09 A2986 RMK A01 T00341088  RH  041%=      5-min Rain = 0
KCL1 211445Z 20002KT 03/M09 A2986 RMK A01 T00341088  RH  040%=      5-min Rain = 0
KCL1 211446Z 20002KT 03/M09 A2986 RMK A01 T00341088  RH  041%=      5-min Rain = 0
KCL1 211447Z 19002KT 03/M09 A2986 RMK A01 T00341088  RH  041%=      5-min Rain = 0
KCL1 211448Z 16003KT 03/M09 A2986 RMK A01 T00341088  RH  040%=      5-min Rain = 0
KCL1 211449Z 16004KT 03/M09 A2986 RMK A01 T00341087  RH  041%=      5-min Rain = 0
KCL1 211450Z 16005KT 03/M09 A2986 RMK A01 T00341086  RH  041%=      5-min Rain = 0
KCL1 211451Z 15005KT 04/M09 A2986 RMK A01 T00351085  RH  041%=      5-min Rain = 0
KCL1 211452Z 16007KT 04/M09 A2986 RMK A01 T00351086  RH  041%=      5-min Rain = 0
KCL1 211453Z 15007KT 04/M09 A2986 RMK A01 T00351087  RH  041%=      5-min Rain = 0
KCL1 211454Z 16008KT 04/M09 A2986 RMK A01 T00351086  RH  041%=      5-min Rain = 0
KCL1 211455Z 16008KT 04/M09 A2986 RMK A01 T00351086  RH  041%=      5-min Rain = 0
KCL1 211456Z 16006KT 04/M09 A2986 RMK A01 T00351086  RH  041%=      5-min Rain = 0
KCL1 211457Z 17006KT 04/M09 A2986 RMK A01 T00361085  RH  041%=      5-min Rain = 0
KCL1 211458Z 17006KT 04/M09 A2986 RMK A01 T00361085  RH  041%=      5-min Rain = 0
KCL1 211459Z 17006KT 04/M09 A2986 RMK A01 T00361085  RH  041%=      5-min Rain = 0
KCL1 211500Z 17006KT 04/M08 A2986 RMK A01 T00371084  RH  041%=      5-min Rain = 0
KCL1 211501Z 16006KT 04/M08 A2986 RMK A01 T00371084  RH  041%=      5-min Rain = 0
KCL1 211502Z 15007KT 04/M08 A2986 RMK A01 T00371084  RH  041%=      5-min Rain = 0
KCL1 211503Z 16008KT 04/M09 A2986 RMK A01 T00371085  RH  041%=      5-min Rain = 0
KCL1 211504Z 15008KT 04/M08 A2986 RMK A01 T00371084  RH  041%=      5-min Rain = 0
KCL1 211505Z 16007KT 04/M09 A2986 RMK A01 T00371085  RH  040%=      5-min Rain = 0
KCL1 211506Z 15008KT 04/M08 A2986 RMK A01 T00381084  RH  041%=      5-min Rain = 0
KCL1 211507Z 16006KT 04/M08 A2986 RMK A01 T00381084  RH  041%=      5-min Rain = 0
KCL1 211508Z 15008KT 04/M08 A2986 RMK A01 T00381084  RH  041%=      5-min Rain = 0
KCL1 211509Z 15007KT 04/M08 A2986 RMK A01 T00381084  RH  041%=      5-min Rain = 0
KCL1 211510Z 15010KT 04/M08 A2986 RMK A01 T00381083  RH  041%=      5-min Rain = 0
KCL1 211511Z 15009KT 04/M08 A2986 RMK A01 T00391083  RH  041%=      5-min Rain = 0
KCL1 211512Z 15007KT 04/M08 A2986 RMK A01 T00391083  RH  041%=      5-min Rain = 0
KCL1 211513Z 14007KT 04/M08 A2986 RMK A01 T00391083  RH  041%=      5-min Rain = 0
KCL1 211514Z 14008KT 04/M08 A2986 RMK A01 T00391082  RH  041%=      5-min Rain = 0
KCL1 211515Z 14010KT 04/M08 A2986 RMK A01 T00401081  RH  041%=      5-min Rain = 0
KCL1 211516Z 14009KT 04/M08 A2986 RMK A01 T00401081  RH  041%=      5-min Rain = 0
KCL1 211517Z 15009KT 04/M08 A2986 RMK A01 T00401082  RH  041%=      5-min Rain = 0
KCL1 211518Z 13006KT 04/M08 A2986 RMK A01 T00401082  RH  041%=      5-min Rain = 0
KCL1 211519Z 13008KT 04/M08 A2986 RMK A01 T00401081  RH  041%=      5-min Rain = 0
KCL1 211520Z 13009KT 04/M08 A2986 RMK A01 T00401080  RH  041%=      5-min Rain = 0
KCL1 211521Z 14009KT 04/M08 A2986 RMK A01 T00411080  RH  041%=      5-min Rain = 0
KCL1 211522Z 14011KT 04/M08 A2986 RMK A01 T00421080  RH  041%=      5-min Rain = 0
KCL1 211523Z 15010KT 04/M08 A2986 RMK A01 T00421080  RH  041%=      5-min Rain = 0
KCL1 211524Z 14010KT 04/M08 A2986 RMK A01 T00421081  RH  040%=      5-min Rain = 0
KCL1 211525Z 13013KT 04/M08 A2986 RMK A01 T00421082  RH  040%=      5-min Rain = 0
KCL1 211526Z 13011KT 04/M08 A2986 RMK A01 T00421082  RH  040%=      5-min Rain = 0
KCL1 211527Z 13009KT 04/M08 A2986 RMK A01 T00421082  RH  040%=      5-min Rain = 0
KCL1 211528Z 14011KT 04/M08 A2986 RMK A01 T00421082  RH  040%=      5-min Rain = 0
KCL1 211529Z 13012KT 04/M08 A2986 RMK A01 T00421082  RH  040%=      5-min Rain = 0
KCL1 211530Z 13010KT 04/M08 A2986 RMK A01 T00411083  RH  040%=      5-min Rain = 0
KCL1 211531Z 14009KT 04/M08 A2987 RMK A01 T00421082  RH  040%=      5-min Rain = 0
KCL1 211532Z 15012KT 04/M08 A2987 RMK A01 T00431081  RH  040%=      5-min Rain = 0
KCL1 211533Z 15012KT 04/M08 A2987 RMK A01 T00431082  RH  040%=      5-min Rain = 0
KCL1 211534Z 14012KT 04/M08 A2986 RMK A01 T00431082  RH  040%=      5-min Rain = 0
KCL1 211535Z 14010KT 04/M08 A2986 RMK A01 T00431082  RH  040%=      5-min Rain = 0
KCL1 211536Z 14009KT 04/M08 A2987 RMK A01 T00441081  RH  040%=      5-min Rain = 0
KCL1 211537Z 15010KT 04/M08 A2987 RMK A01 T00441081  RH  040%=      5-min Rain = 0
KCL1 211538Z 15012KT 04/M08 A2987 RMK A01 T00441081  RH  040%=      5-min Rain = 0
KCL1 211539Z 15012KT 05/M08 A2987 RMK A01 T00451082  RH  039%=      5-min Rain = 0
KCL1 211540Z 14010KT 04/M08 A2987 RMK A01 T00441082  RH  039%=      5-min Rain = 0
KCL1 211541Z 14009KT 04/M08 A2987 RMK A01 T00441082  RH  039%=      5-min Rain = 0
KCL1 211542Z 14010KT 05/M08 A2987 RMK A01 T00451082  RH  039%=      5-min Rain = 0
KCL1 211543Z 15009KT 05/M08 A2987 RMK A01 T00451081  RH  039%=      5-min Rain = 0
KCL1 211544Z 13009KT 05/M08 A2987 RMK A01 T00461080  RH  039%=      5-min Rain = 0
KCL1 211545Z 13012KT 05/M08 A2986 RMK A01 T00471081  RH  039%=      5-min Rain = 0
KCL1 211546Z 13012KT 05/M08 A2986 RMK A01 T00461082  RH  039%=      5-min Rain = 0
KCL1 211547Z 13011KT 05/M08 A2986 RMK A01 T00461082  RH  039%=      5-min Rain = 0
KCL1 211548Z 13011KT 05/M08 A2986 RMK A01 T00461080  RH  040%=      5-min Rain = 0
KCL1 211549Z 13011KT 05/M08 A2987 RMK A01 T00471080  RH  039%=      5-min Rain = 0
KCL1 211550Z 12011KT 05/M08 A2986 RMK A01 T00481080  RH  039%=      5-min Rain = 0
KCL1 211551Z 13013KT 05/M08 A2986 RMK A01 T00481080  RH  039%=      5-min Rain = 0
KCL1 211552Z 13013KT 05/M08 A2986 RMK A01 T00491080  RH  039%=      5-min Rain = 0
KCL1 211553Z 13011KT 05/M08 A2986 RMK A01 T00491080  RH  039%=      5-min Rain = 0
KCL1 211554Z 13012KT 05/M08 A2986 RMK A01 T00491081  RH  039%=      5-min Rain = 0
KCL1 211555Z 13011KT 05/M08 A2986 RMK A01 T00491081  RH  039%=      5-min Rain = 0
KCL1 211556Z 13010KT 05/M08 A2986 RMK A01 T00491079  RH  039%=      5-min Rain = 0
KCL1 211557Z 13010KT 05/M08 A2986 RMK A01 T00501078  RH  039%=      5-min Rain = 0
KCL1 211558Z 13012KT 05/M08 A2986 RMK A01 T00511078  RH  039%=      5-min Rain = 0
KCL1 211559Z 13012KT 05/M08 A2986 RMK A01 T00511078  RH  039%=      5-min Rain = 0
KCL1 211600Z 14011KT 05/M08 A2986 RMK A01 T00521078  RH  039%=      5-min Rain = 0
KCL1 211601Z 14012KT 05/M08 A2986 RMK A01 T00521077  RH  039%=      5-min Rain = 0
KCL1 211602Z 14011KT 05/M08 A2986 RMK A01 T00531078  RH  038%=      5-min Rain = 0
KCL1 211603Z 13012KT 05/M08 A2986 RMK A01 T00531078  RH  038%=      5-min Rain = 0
KCL1 211604Z 13011KT 05/M08 A2986 RMK A01 T00541077  RH  038%=      5-min Rain = 0
KCL1 211605Z 13012KT 06/M08 A2986 RMK A01 T00551076  RH  038%=      5-min Rain = 0
KCL1 211606Z 13011KT 06/M08 A2986 RMK A01 T00561075  RH  038%=      5-min Rain = 0
KCL1 211607Z 14010KT 06/M08 A2986 RMK A01 T00561076  RH  038%=      5-min Rain = 0
KCL1 211608Z 14011KT 06/M08 A2986 RMK A01 T00571075  RH  038%=      5-min Rain = 0
KCL1 211609Z 14011KT 06/M08 A2986 RMK A01 T00571075  RH  038%=      5-min Rain = 0
KCL1 211610Z 14010KT 06/M08 A2986 RMK A01 T00571075  RH  038%=      5-min Rain = 0
KCL1 211611Z 13010KT 06/M07 A2986 RMK A01 T00581074  RH  038%=      5-min Rain = 0
KCL1 211612Z 14009KT 06/M07 A2986 RMK A01 T00591073  RH  038%=      5-min Rain = 0
KCL1 211613Z 14015KT 06/M07 A2986 RMK A01 T00601072  RH  038%=      5-min Rain = 0
KCL1 211614Z 14015KT 06/M07 A2986 RMK A01 T00601073  RH  038%=      5-min Rain = 0
KCL1 211615Z 14012KT 06/M07 A2986 RMK A01 T00601074  RH  038%=      5-min Rain = 0
KCL1 211616Z 14012KT 06/M07 A2986 RMK A01 T00591073  RH  038%=      5-min Rain = 0
KCL1 211617Z 14009KT 06/M07 A2986 RMK A01 T00601072  RH  038%=      5-min Rain = 0
KCL1 211618Z 14011KT 06/M07 A2986 RMK A01 T00621071  RH  038%=      5-min Rain = 0
KCL1 211619Z 14010KT 06/M07 A2986 RMK A01 T00621071  RH  038%=      5-min Rain = 0
KCL1 211620Z 13013KT 06/M07 A2985 RMK A01 T00631070  RH  038%=      5-min Rain = 0
KCL1 211621Z 14014KT 06/M07 A2986 RMK A01 T00631070  RH  038%=      5-min Rain = 0
KCL1 211622Z 14011KT 06/M07 A2986 RMK A01 T00631070  RH  038%=      5-min Rain = 0
KCL1 211623Z 14011KT 06/M07 A2986 RMK A01 T00641069  RH  038%=      5-min Rain = 0
KCL1 211624Z 13012KT 06/M07 A2986 RMK A01 T00641069  RH  038%=      5-min Rain = 0
KCL1 211625Z 15013KT 07/M07 A2986 RMK A01 T00651068  RH  038%=      5-min Rain = 0
KCL1 211626Z 14011KT 07/M07 A2985 RMK A01 T00651068  RH  038%=      5-min Rain = 0
KCL1 211627Z 13012KT 07/M07 A2985 RMK A01 T00651068  RH  038%=      5-min Rain = 0
KCL1 211628Z 13011KT 07/M07 A2985 RMK A01 T00661067  RH  038%=      5-min Rain = 0
KCL1 211629Z 13009KT 07/M07 A2985 RMK A01 T00661066  RH  038%=      5-min Rain = 0
KCL1 211630Z 14009KT 07/M07 A2985 RMK A01 T00671065  RH  038%=      5-min Rain = 0
KCL1 211631Z 14010KT 07/M07 A2985 RMK A01 T00691066  RH  038%=      5-min Rain = 0
KCL1 211632Z 13012KT 07/M07 A2985 RMK A01 T00691065  RH  038%=      5-min Rain = 0
KCL1 211633Z 14012KT 07/M07 A2985 RMK A01 T00691066  RH  038%=      5-min Rain = 0
KCL1 211634Z 14010KT 07/M07 A2985 RMK A01 T00691066  RH  038%=      5-min Rain = 0
KCL1 211635Z 13013KT 07/M06 A2985 RMK A01 T00701064  RH  038%=      5-min Rain = 0
KCL1 211636Z 14013KT 07/M07 A2985 RMK A01 T00701066  RH  037%=      5-min Rain = 0
KCL1 211637Z 15011KT 07/M07 A2985 RMK A01 T00691066  RH  038%=      5-min Rain = 0
KCL1 211638Z 15012KT 07/M07 A2985 RMK A01 T00691066  RH  038%=      5-min Rain = 0
KCL1 211639Z 14012KT 07/M07 A2986 RMK A01 T00691066  RH  037%=      5-min Rain = 0
KCL1 211640Z 14010KT 07/M07 A2986 RMK A01 T00691066  RH  038%=      5-min Rain = 0
KCL1 211641Z 13012KT 07/M07 A2986 RMK A01 T00691065  RH  038%=      5-min Rain = 0
KCL1 211642Z 13012KT 07/M07 A2986 RMK A01 T00691065  RH  038%=      5-min Rain = 0
KCL1 211643Z 14012KT 07/M07 A2986 RMK A01 T00691065  RH  038%=      5-min Rain = 0
KCL1 211644Z 14011KT 07/M07 A2986 RMK A01 T00691065  RH  038%=      5-min Rain = 0
KCL1 211645Z 14010KT 07/M07 A2986 RMK A01 T00691066  RH  038%=      5-min Rain = 0
KCL1 211646Z 15012KT 07/M07 A2986 RMK A01 T00691065  RH  038%=      5-min Rain = 0
KCL1 211647Z 14011KT 07/M07 A2986 RMK A01 T00701065  RH  038%=      5-min Rain = 0
KCL1 211648Z 15008KT 07/M07 A2986 RMK A01 T00701065  RH  038%=      5-min Rain = 0
KCL1 211649Z 14010KT 07/M06 A2986 RMK A01 T00711064  RH  038%=      5-min Rain = 0
KCL1 211650Z 14010KT 07/M07 A2986 RMK A01 T00711065  RH  037%=      5-min Rain = 0
KCL1 211651Z 14010KT 07/M06 A2986 RMK A01 T00721063  RH  038%=      5-min Rain = 0
KCL1 211652Z 15010KT 07/M06 A2986 RMK A01 T00731063  RH  037%=      5-min Rain = 0
KCL1 211653Z 14009KT 08/M06 A2986 RMK A01 T00751061  RH  037%=      5-min Rain = 0
KCL1 211654Z 13010KT 08/M06 A2986 RMK A01 T00761062  RH  037%=      5-min Rain = 0
KCL1 211655Z 14010KT 08/M06 A2986 RMK A01 T00761061  RH  037%=      5-min Rain = 0
KCL1 211656Z 13011KT 08/M06 A2986 RMK A01 T00761062  RH  037%=      5-min Rain = 0
KCL1 211657Z 14009KT 08/M06 A2986 RMK A01 T00751063  RH  037%=      5-min Rain = 0
KCL1 211658Z 14009KT 08/M06 A2986 RMK A01 T00751062  RH  037%=      5-min Rain = 0
KCL1 211659Z 13012G18KT 08/M06 A2986 RMK A01 T00761060  RH  037%=      5-min Rain = 0
KCL1 211700Z 13014KT 08/M06 A2986 RMK A01 T00771062  RH  037%=      5-min Rain = 0
KCL1 211701Z 15011KT 08/M06 A2987 RMK A01 T00751063  RH  037%=      5-min Rain = 0
KCL1 211702Z 14014KT 08/M06 A2987 RMK A01 T00751062  RH  037%=      5-min Rain = 0
KCL1 211703Z 13013KT 08/M06 A2986 RMK A01 T00751063  RH  037%=      5-min Rain = 0
KCL1 211704Z 14011KT 07/M06 A2987 RMK A01 T00741062  RH  037%=      5-min Rain = 0
KCL1 211705Z 14011KT 07/M06 A2987 RMK A01 T00741063  RH  037%=      5-min Rain = 0
KCL1 211706Z 13011KT 08/M06 A2986 RMK A01 T00761060  RH  038%=      5-min Rain = 0
KCL1 211707Z 14012KT 08/M06 A2986 RMK A01 T00781060  RH  037%=      5-min Rain = 0
KCL1 211708Z 15013KT 08/M06 A2986 RMK A01 T00771061  RH  037%=      5-min Rain = 0
KCL1 211709Z 16011KT 08/M06 A2986 RMK A01 T00771061  RH  037%=      5-min Rain = 0
KCL1 211710Z 15009KT 08/M06 A2986 RMK A01 T00761061  RH  037%=      5-min Rain = 0
KCL1 211711Z 15009KT 08/M06 A2986 RMK A01 T00781059  RH  037%=      5-min Rain = 0
KCL1 211712Z 16012KT 08/M06 A2986 RMK A01 T00801058  RH  037%=      5-min Rain = 0
KCL1 211713Z 15010KT 08/M06 A2986 RMK A01 T00801059  RH  037%=      5-min Rain = 0
KCL1 211714Z 15011KT 08/M06 A2986 RMK A01 T00811057  RH  037%=      5-min Rain = 0
KCL1 211715Z 14017KT 08/M06 A2986 RMK A01 T00821058  RH  037%=      5-min Rain = 0
KCL1 211716Z 14014KT 08/M06 A2986 RMK A01 T00801059  RH  037%=      5-min Rain = 0
KCL1 211717Z 14014KT 08/M06 A2986 RMK A01 T00791058  RH  037%=      5-min Rain = 0
KCL1 211718Z 14013KT 08/M06 A2986 RMK A01 T00791058  RH  037%=      5-min Rain = 0
KCL1 211719Z 14016KT 08/M06 A2986 RMK A01 T00791057  RH  038%=      5-min Rain = 0
KCL1 211720Z 14015KT 08/M06 A2986 RMK A01 T00791057  RH  038%=      5-min Rain = 0
KCL1 211721Z 15015KT 08/M06 A2986 RMK A01 T00791057  RH  038%=      5-min Rain = 0
KCL1 211722Z 15013KT 08/M06 A2986 RMK A01 T00781057  RH  038%=      5-min Rain = 0
KCL1 211723Z 15012KT 08/M06 A2986 RMK A01 T00791056  RH  038%=      5-min Rain = 0
KCL1 211724Z 15012KT 08/M06 A2986 RMK A01 T00801056  RH  038%=      5-min Rain = 0
KCL1 211725Z 14012KT 08/M06 A2986 RMK A01 T00801056  RH  038%=      5-min Rain = 0
KCL1 211726Z 14013KT 08/M06 A2986 RMK A01 T00811055  RH  038%=      5-min Rain = 0
KCL1 211727Z 14016KT 08/M06 A2986 RMK A01 T00821055  RH  038%=      5-min Rain = 0
KCL1 211728Z 13016KT 08/M05 A2986 RMK A01 T00831054  RH  037%=      5-min Rain = 0
KCL1 211729Z 14018KT 09/M05 A2985 RMK A01 T00851053  RH  037%=      5-min Rain = 0
KCL1 211730Z 14013KT 09/M05 A2985 RMK A01 T00881050  RH  037%=      5-min Rain = 0
KCL1 211731Z 14015KT 09/M05 A2985 RMK A01 T00941047  RH  037%=      5-min Rain = 0
KCL1 211732Z 14016KT 10/M05 A2985 RMK A01 T00971047  RH  036%=      5-min Rain = 0
KCL1 211733Z 14015KT 10/M05 A2985 RMK A01 T00961051  RH  035%=      5-min Rain = 0
KCL1 211734Z 15011KT 10/M05 A2985 RMK A01 T00951049  RH  036%=      5-min Rain = 0
KCL1 211735Z 15013KT 10/M05 A2985 RMK A01 T01001045  RH  036%=      5-min Rain = 0
KCL1 211736Z 15016KT 10/M05 A2985 RMK A01 T01011049  RH  034%=      5-min Rain = 0
KCL1 211737Z 16014KT 10/M05 A2985 RMK A01 T00981052  RH  034%=      5-min Rain = 0
KCL1 211738Z 16012KT 10/M05 A2985 RMK A01 T00971051  RH  035%=      5-min Rain = 0
KCL1 211739Z 16013G21KT 10/M05 A2985 RMK A01 T00971051  RH  035%=      5-min Rain = 0
KCL1 211740Z 17018KT 10/M05 A2985 RMK A01 T00961053  RH  034%=      5-min Rain = 0
KCL1 211741Z 15018G23KT 09/M06 A2985 RMK A01 T00931055  RH  035%=      5-min Rain = 0
KCL1 211742Z 14017KT 09/M06 A2985 RMK A01 T00911055  RH  035%=      5-min Rain = 0
KCL1 211743Z 14016KT 09/M05 A2985 RMK A01 T00911054  RH  035%=      5-min Rain = 0
KCL1 211744Z 16014G19KT 09/M05 A2985 RMK A01 T00921053  RH  036%=      5-min Rain = 0
KCL1 211745Z 15017G22KT 09/M05 A2985 RMK A01 T00931052  RH  035%=      5-min Rain = 0
KCL1 211746Z 15018KT 09/M05 A2985 RMK A01 T00941053  RH  035%=      5-min Rain = 0
KCL1 211747Z 15018KT 09/M05 A2985 RMK A01 T00931054  RH  035%=      5-min Rain = 0
KCL1 211748Z 15014KT 09/M06 A2985 RMK A01 T00911055  RH  035%=      5-min Rain = 0
KCL1 211749Z 15011G16KT 09/M05 A2985 RMK A01 T00901054  RH  036%=      5-min Rain = 0
KCL1 211750Z 16015KT 09/M05 A2985 RMK A01 T00921053  RH  035%=      5-min Rain = 0
KCL1 211751Z 15015KT 09/M05 A2985 RMK A01 T00911054  RH  035%=      5-min Rain = 0
KCL1 211752Z 16016KT 09/M05 A2985 RMK A01 T00921053  RH  035%=      5-min Rain = 0
KCL1 211753Z 15014KT 09/M05 A2985 RMK A01 T00931053  RH  035%=      5-min Rain = 0
KCL1 211754Z 16013KT 09/M05 A2984 RMK A01 T00931053  RH  035%=      5-min Rain = 0
KCL1 211755Z 14014G19KT 09/M05 A2984 RMK A01 T00931053  RH  035%=      5-min Rain = 0
KCL1 211756Z 13017KT 09/M05 A2984 RMK A01 T00941053  RH  035%=      5-min Rain = 0
KCL1 211757Z 14015G20KT 09/M05 A2984 RMK A01 T00941052  RH  035%=      5-min Rain = 0
KCL1 211758Z 15015KT 10/M05 A2984 RMK A01 T00961050  RH  035%=      5-min Rain = 0
KCL1 211759Z 15013KT 10/M05 A2984 RMK A01 T00981050  RH  035%=      5-min Rain = 0
KCL1 211800Z 16016KT 10/M05 A2984 RMK A01 T01011048  RH  035%=      5-min Rain = 0
KCL1 211801Z 15013KT 10/M05 A2984 RMK A01 T01011050  RH  034%=      5-min Rain = 0
KCL1 211802Z 16015G22KT 10/M05 A2984 RMK A01 T01021048  RH  034%=      5-min Rain = 0
KCL1 211803Z 16017KT 10/M05 A2984 RMK A01 T01021051  RH  034%=      5-min Rain = 0
KCL1 211804Z 14017G24KT 10/M05 A2984 RMK A01 T01001051  RH  034%=      5-min Rain = 0
KCL1 211805Z 15018G23KT 10/M05 A2984 RMK A01 T00981052  RH  034%=      5-min Rain = 0
KCL1 211806Z 14017G22KT 10/M05 A2984 RMK A01 T00961052  RH  035%=      5-min Rain = 0
KCL1 211807Z 15016KT 10/M05 A2984 RMK A01 T00961051  RH  035%=      5-min Rain = 0
KCL1 211808Z 13013G18KT 10/M05 A2984 RMK A01 T00961051  RH  035%=      5-min Rain = 0
KCL1 211809Z 13017KT 10/M05 A2984 RMK A01 T00961050  RH  035%=      5-min Rain = 0
KCL1 211810Z 15015KT 10/M05 A2984 RMK A01 T00961051  RH  035%=      5-min Rain = 0
KCL1 211811Z 14019G24KT 10/M05 A2984 RMK A01 T00961051  RH  035%=      5-min Rain = 0
KCL1 211812Z 14015KT 10/M05 A2984 RMK A01 T00951052  RH  035%=      5-min Rain = 0
KCL1 211813Z 15017KT 09/M05 A2984 RMK A01 T00941052  RH  035%=      5-min Rain = 0
KCL1 211814Z 15012KT 10/M05 A2984 RMK A01 T00951049  RH  036%=      5-min Rain = 0
KCL1 211815Z 14014G20KT 10/M05 A2984 RMK A01 T01001046  RH  035%=      5-min Rain = 0
KCL1 211816Z 14015G21KT 10/M05 A2984 RMK A01 T01031045  RH  035%=      5-min Rain = 0
KCL1 211817Z 12017KT 10/M05 A2984 RMK A01 T01031046  RH  035%=      5-min Rain = 0
KCL1 211818Z 13020KT 10/M05 A2984 RMK A01 T01021048  RH  034%=      5-min Rain = 0
KCL1 211819Z 14015G22KT 10/M05 A2984 RMK A01 T01001048  RH  035%=      5-min Rain = 0
KCL1 211820Z 15016KT 10/M05 A2984 RMK A01 T01011048  RH  035%=      5-min Rain = 0
KCL1 211821Z 15016KT 10/M05 A2984 RMK A01 T00991050  RH  035%=      5-min Rain = 0
KCL1 211822Z 15017KT 10/M05 A2984 RMK A01 T00971050  RH  035%=      5-min Rain = 0
KCL1 211823Z 15017KT 10/M05 A2984 RMK A01 T00961050  RH  035%=      5-min Rain = 0
KCL1 211824Z 14013KT 10/M05 A2984 RMK A01 T00951049  RH  036%=      5-min Rain = 0
KCL1 211825Z 16014G19KT 10/M05 A2984 RMK A01 T00971047  RH  036%=      5-min Rain = 0
KCL1 211826Z 15015KT 10/M05 A2984 RMK A01 T00981047  RH  036%=      5-min Rain = 0
KCL1 211827Z 13018KT 10/M04 A2984 RMK A01 T01021044  RH  036%=      5-min Rain = 0
KCL1 211828Z 13015KT 10/M04 A2984 RMK A01 T01031044  RH  035%=      5-min Rain = 0
KCL1 211829Z 13017KT 10/M04 A2984 RMK A01 T01031044  RH  035%=      5-min Rain = 0
KCL1 211830Z 14014G19KT 10/M05 A2984 RMK A01 T01031045  RH  035%=      5-min Rain = 0
KCL1 211831Z 16013KT 10/M04 A2984 RMK A01 T01031044  RH  035%=      5-min Rain = 0
KCL1 211832Z 15013G18KT 11/M04 A2984 RMK A01 T01061041  RH  035%=      5-min Rain = 0
KCL1 211833Z 13016KT 11/M04 A2984 RMK A01 T01081042  RH  034%=      5-min Rain = 0
KCL1 211834Z 13016KT 11/M04 A2984 RMK A01 T01071044  RH  034%=      5-min Rain = 0
KCL1 211835Z 13015KT 11/M04 A2984 RMK A01 T01051044  RH  035%=      5-min Rain = 0
KCL1 211836Z 15018G24KT 10/M04 A2984 RMK A01 T01041044  RH  035%=      5-min Rain = 0
KCL1 211837Z 15014KT 11/M04 A2984 RMK A01 T01061043  RH  035%=      5-min Rain = 0
KCL1 211838Z 15016KT 11/M05 A2984 RMK A01 T01061046  RH  034%=      5-min Rain = 0
KCL1 211839Z 14014G19KT 10/M05 A2984 RMK A01 T01021046  RH  035%=      5-min Rain = 0
KCL1 211840Z 13016G21KT 10/M04 A2984 RMK A01 T01031043  RH  036%=      5-min Rain = 0
KCL1 211841Z 13016KT 11/M04 A2984 RMK A01 T01051042  RH  035%=      5-min Rain = 0
KCL1 211842Z 14016KT 11/M04 A2984 RMK A01 T01051043  RH  035%=      5-min Rain = 0
KCL1 211843Z 14017KT 10/M04 A2984 RMK A01 T01041044  RH  035%=      5-min Rain = 0
KCL1 211844Z 13016KT 10/M04 A2983 RMK A01 T01041043  RH  035%=      5-min Rain = 0
KCL1 211845Z 15017KT 11/M04 A2983 RMK A01 T01061041  RH  035%=      5-min Rain = 0
KCL1 211846Z 15017KT 11/M04 A2983 RMK A01 T01071042  RH  035%=      5-min Rain = 0
KCL1 211847Z 14016KT 11/M04 A2983 RMK A01 T01051044  RH  035%=      5-min Rain = 0
KCL1 211848Z 13018KT 11/M04 A2983 RMK A01 T01051041  RH  035%=      5-min Rain = 0
KCL1 211849Z 12020KT 11/M04 A2983 RMK A01 T01081041  RH  035%=      5-min Rain = 0
KCL1 211850Z 14019G24KT 11/M04 A2983 RMK A01 T01081042  RH  035%=      5-min Rain = 0
KCL1 211851Z 16016G21KT 11/M04 A2983 RMK A01 T01061044  RH  035%=      5-min Rain = 0
KCL1 211852Z 16014KT 10/M04 A2983 RMK A01 T01041044  RH  035%=      5-min Rain = 0
KCL1 211853Z 14016KT 11/M04 A2983 RMK A01 T01061041  RH  035%=      5-min Rain = 0
KCL1 211854Z 12018KT 11/M04 A2983 RMK A01 T01081039  RH  035%=      5-min Rain = 0
KCL1 211855Z 15014KT 11/M04 A2983 RMK A01 T01101038  RH  035%=      5-min Rain = 0
KCL1 211856Z 16013G19KT 11/M04 A2983 RMK A01 T01131038  RH  035%=      5-min Rain = 0
KCL1 211857Z 15014KT 11/M04 A2983 RMK A01 T01131040  RH  034%=      5-min Rain = 0
KCL1 211858Z 14016G21KT 11/M04 A2983 RMK A01 T01121039  RH  035%=      5-min Rain = 0
KCL1 211859Z 13017KT 11/M04 A2983 RMK A01 T01141039  RH  034%=      5-min Rain = 0
KCL1 211900Z 14014KT 11/M04 A2983 RMK A01 T01131039  RH  034%=      5-min Rain = 0
KCL1 211901Z 13016G22KT 11/M04 A2983 RMK A01 T01141036  RH  035%=      5-min Rain = 0
KCL1 211902Z 14016G21KT 12/M04 A2983 RMK A01 T01151036  RH  034%=      5-min Rain = 0
KCL1 211903Z 13017G22KT 12/M04 A2983 RMK A01 T01151038  RH  034%=      5-min Rain = 0
KCL1 211904Z 14017KT 11/M04 A2983 RMK A01 T01131039  RH  034%=      5-min Rain = 0
KCL1 211905Z 14015KT 11/M04 A2983 RMK A01 T01111039  RH  035%=      5-min Rain = 0
KCL1 211906Z 14017G22KT 11/M04 A2982 RMK A01 T01111037  RH  035%=      5-min Rain = 0
KCL1 211907Z 14017G22KT 11/M04 A2982 RMK A01 T01131037  RH  035%=      5-min Rain = 0
KCL1 211908Z 13014KT 11/M04 A2982 RMK A01 T01111037  RH  035%=      5-min Rain = 0
KCL1 211909Z 14016KT 11/M04 A2982 RMK A01 T01121035  RH  035%=      5-min Rain = 0
KCL1 211910Z 13017KT 11/M03 A2982 RMK A01 T01141034  RH  035%=      5-min Rain = 0
KCL1 211911Z 13018KT 12/M03 A2982 RMK A01 T01161034  RH  035%=      5-min Rain = 0
KCL1 211912Z 13014KT 12/M03 A2982 RMK A01 T01171034  RH  035%=      5-min Rain = 0
KCL1 211913Z 14015KT 12/M03 A2982 RMK A01 T01181033  RH  035%=      5-min Rain = 0
KCL1 211914Z 13016G21KT 12/M03 A2982 RMK A01 T01191033  RH  034%=      5-min Rain = 0
KCL1 211915Z 15012G18KT 12/M03 A2982 RMK A01 T01221032  RH  034%=      5-min Rain = 0
KCL1 211916Z 15011KT 12/M03 A2982 RMK A01 T01241032  RH  034%=      5-min Rain = 0
KCL1 211917Z 13014KT 12/M03 A2982 RMK A01 T01241033  RH  033%=      5-min Rain = 0
KCL1 211918Z 14013KT 12/M03 A2982 RMK A01 T01241032  RH  034%=      5-min Rain = 0
KCL1 211919Z 16014G19KT 13/M03 A2982 RMK A01 T01251032  RH  033%=      5-min Rain = 0
KCL1 211920Z 17015KT 13/M03 A2981 RMK A01 T01251034  RH  033%=      5-min Rain = 0
KCL1 211921Z 14013KT 12/M03 A2982 RMK A01 T01231034  RH  033%=      5-min Rain = 0
KCL1 211922Z 13013KT 13/M03 A2982 RMK A01 T01251030  RH  034%=      5-min Rain = 0
KCL1 211923Z 14018G24KT 13/M03 A2982 RMK A01 T01271031  RH  033%=      5-min Rain = 0
KCL1 211924Z 14014KT 12/M04 A2981 RMK A01 T01211036  RH  033%=      5-min Rain = 0
KCL1 211925Z 13014KT 12/M03 A2981 RMK A01 T01191034  RH  034%=      5-min Rain = 0
KCL1 211926Z 14018G24KT 12/M03 A2981 RMK A01 T01201033  RH  034%=      5-min Rain = 0
KCL1 211927Z 14018KT 12/M03 A2981 RMK A01 T01201033  RH  034%=      5-min Rain = 0
KCL1 211928Z 14020G25KT 12/M03 A2981 RMK A01 T01201033  RH  034%=      5-min Rain = 0
KCL1 211929Z 13020KT 12/M04 A2981 RMK A01 T01181035  RH  034%=      5-min Rain = 0
KCL1 211930Z 14017G24KT 12/M03 A2981 RMK A01 T01181034  RH  035%=      5-min Rain = 0
KCL1 211931Z 12016KT 12/M03 A2981 RMK A01 T01181034  RH  035%=      5-min Rain = 0
KCL1 211932Z 12017KT 12/M03 A2981 RMK A01 T01181032  RH  035%=      5-min Rain = 0
KCL1 211933Z 12018KT 12/M03 A2981 RMK A01 T01201032  RH  035%=      5-min Rain = 0
KCL1 211934Z 12019KT 12/M03 A2981 RMK A01 T01201032  RH  034%=      5-min Rain = 0
KCL1 211935Z 13017KT 12/M03 A2981 RMK A01 T01211031  RH  035%=      5-min Rain = 0
KCL1 211936Z 13016KT 12/M03 A2981 RMK A01 T01211031  RH  034%=      5-min Rain = 0
KCL1 211937Z 14015KT 12/M03 A298 RMK A01 T01211030  RH  035%=      5-min Rain = 0
KCL1 211938Z 13019KT 12/M03 A298 RMK A01 T01241028  RH  035%=      5-min Rain = 0
KCL1 211939Z 12021KT 13/M03 A298 RMK A01 T01251029  RH  034%=      5-min Rain = 0
KCL1 211940Z 13017KT 12/M03 A298 RMK A01 T01231032  RH  034%=      5-min Rain = 0
KCL1 211941Z 12018KT 12/M03 A298 RMK A01 T01211030  RH  035%=      5-min Rain = 0
KCL1 211942Z 13018KT 12/M03 A298 RMK A01 T01221029  RH  035%=      5-min Rain = 0
KCL1 211943Z 12014KT 12/M03 A298 RMK A01 T01241028  RH  035%=      5-min Rain = 0
KCL1 211944Z 13016KT 13/M03 A298 RMK A01 T01261028  RH  034%=      5-min Rain = 0
KCL1 211945Z 13018KT 13/M03 A298 RMK A01 T01271028  RH  034%=      5-min Rain = 0
KCL1 211946Z 13020KT 13/M03 A298 RMK A01 T01251029  RH  034%=      5-min Rain = 0
KCL1 211947Z 13017KT 12/M03 A298 RMK A01 T01241029  RH  034%=      5-min Rain = 0
KCL1 211948Z 14014KT 12/M03 A298 RMK A01 T01241028  RH  035%=      5-min Rain = 0
KCL1 211949Z 13015KT 12/M03 A298 RMK A01 T01241029  RH  034%=      5-min Rain = 0
KCL1 211950Z 13013G18KT 12/M03 A298 RMK A01 T01241027  RH  035%=      5-min Rain = 0
KCL1 211951Z 13019KT 13/M03 A298 RMK A01 T01271026  RH  034%=      5-min Rain = 0
KCL1 211952Z 13020KT 13/M03 A298 RMK A01 T01251029  RH  034%=      5-min Rain = 0
KCL1 211953Z 13020KT 12/M03 A298 RMK A01 T01231028  RH  035%=      5-min Rain = 0
KCL1 211954Z 13020KT 12/M03 A298 RMK A01 T01231029  RH  035%=      5-min Rain = 0
KCL1 211955Z 13017KT 12/M03 A298 RMK A01 T01211029  RH  035%=      5-min Rain = 0
KCL1 211956Z 14014KT 12/M03 A298 RMK A01 T01211027  RH  035%=      5-min Rain = 0
KCL1 211957Z 14016KT 12/M03 A298 RMK A01 T01231027  RH  035%=      5-min Rain = 0
KCL1 211958Z 14015KT 12/M03 A298 RMK A01 T01241026  RH  035%=      5-min Rain = 0
KCL1 211959Z 13015KT 13/M03 A298 RMK A01 T01261025  RH  035%=      5-min Rain = 0
KCL1 212000Z 14018KT 13/M02 A298 RMK A01 T01281023  RH  035%=      5-min Rain = 0
KCL1 212001Z 14015G20KT 13/M03 A298 RMK A01 T01281025  RH  034%=      5-min Rain = 0
KCL1 212002Z 14012KT 13/M02 A298 RMK A01 T01291024  RH  035%=      5-min Rain = 0
KCL1 212003Z 13015G23KT 13/M02 A298 RMK A01 T01311022  RH  034%=      5-min Rain = 0
KCL1 212004Z 14021KT 13/M02 A2979 RMK A01 T01321024  RH  034%=      5-min Rain = 0
KCL1 212005Z 14020KT 13/M03 A2979 RMK A01 T01271027  RH  034%=      5-min Rain = 0
KCL1 212006Z 13021KT 13/M03 A2979 RMK A01 T01251026  RH  035%=      5-min Rain = 0
KCL1 212007Z 13018G23KT 12/M03 A298 RMK A01 T01241026  RH  035%=      5-min Rain = 0
KCL1 212008Z 13017KT 12/M03 A298 RMK A01 T01221026  RH  036%=      5-min Rain = 0
KCL1 212009Z 12019KT 12/M03 A2979 RMK A01 T01231025  RH  036%=      5-min Rain = 0
KCL1 212010Z 11020KT 12/M03 A2979 RMK A01 T01221025  RH  036%=      5-min Rain = 0
KCL1 212011Z 11017G22KT 12/M02 A2979 RMK A01 T01231024  RH  036%=      5-min Rain = 0
KCL1 212012Z 12018KT 13/M02 A2979 RMK A01 T01251022  RH  036%=      5-min Rain = 0
KCL1 212013Z 12019G24KT 13/M02 A2979 RMK A01 T01251023  RH  036%=      5-min Rain = 0
KCL1 212014Z 13017KT 13/M02 A2979 RMK A01 T01251023  RH  036%=      5-min Rain = 0
KCL1 212015Z 12017KT 13/M02 A2979 RMK A01 T01261022  RH  036%=      5-min Rain = 0
KCL1 212016Z 12016KT 13/M02 A2979 RMK A01 T01261022  RH  036%=      5-min Rain = 0
KCL1 212017Z 12017KT 13/M02 A2979 RMK A01 T01281019  RH  036%=      5-min Rain = 0
KCL1 212018Z 12022KT 13/M02 A2979 RMK A01 T01291021  RH  035%=      5-min Rain = 0
KCL1 212019Z 13020KT 13/M02 A2978 RMK A01 T01271022  RH  035%=      5-min Rain = 0
KCL1 212020Z 13020KT 13/M02 A2979 RMK A01 T01271022  RH  036%=      5-min Rain = 0
KCL1 212021Z 13017G23KT 13/M02 A2979 RMK A01 T01271021  RH  036%=      5-min Rain = 0
KCL1 212022Z 13016KT 13/M02 A2979 RMK A01 T01261021  RH  036%=      5-min Rain = 0
KCL1 212023Z 12019KT 13/M02 A2979 RMK A01 T01271020  RH  036%=      5-min Rain = 0
KCL1 212024Z 13019KT 13/M02 A2979 RMK A01 T01291019  RH  036%=      5-min Rain = 0
KCL1 212025Z 13017KT 13/M02 A2979 RMK A01 T01301020  RH  035%=      5-min Rain = 0
KCL1 212026Z 13021KT 13/M02 A2978 RMK A01 T01291020  RH  035%=      5-min Rain = 0
KCL1 212027Z 13021KT 13/M02 A2979 RMK A01 T01291020  RH  036%=      5-min Rain = 0
KCL1 212028Z 14016G21KT 13/M02 A2979 RMK A01 T01281020  RH  036%=      5-min Rain = 0
KCL1 212029Z 14014KT 13/M02 A2979 RMK A01 T01281019  RH  036%=      5-min Rain = 0
KCL1 212030Z 13016G21KT 13/M02 A2979 RMK A01 T01301018  RH  036%=      5-min Rain = 0
KCL1 212031Z 12018G23KT 13/M02 A2979 RMK A01 T01311019  RH  035%=      5-min Rain = 0
KCL1 212032Z 12018KT 13/M02 A2979 RMK A01 T01311019  RH  036%=      5-min Rain = 0
KCL1 212033Z 11018KT 13/M02 A2979 RMK A01 T01301019  RH  035%=      5-min Rain = 0
KCL1 212034Z 12016KT 13/M02 A2979 RMK A01 T01301019  RH  036%=      5-min Rain = 0
KCL1 212035Z 13015KT 13/M02 A2978 RMK A01 T01301019  RH  036%=      5-min Rain = 0
KCL1 212036Z 14017KT 13/M02 A2978 RMK A01 T01331017  RH  035%=      5-min Rain = 0
KCL1 212037Z 14018KT 14/M02 A2978 RMK A01 T01351018  RH  035%=      5-min Rain = 0
KCL1 212038Z 13014KT 13/M02 A2979 RMK A01 T01331019  RH  035%=      5-min Rain = 0
KCL1 212039Z 13017KT 13/M02 A2978 RMK A01 T01321018  RH  035%=      5-min Rain = 0
KCL1 212040Z 14014KT 13/M02 A2978 RMK A01 T01331017  RH  035%=      5-min Rain = 0
KCL1 212041Z 14012G18KT 13/M02 A2979 RMK A01 T01341017  RH  035%=      5-min Rain = 0
KCL1 212042Z 14016KT 14/M02 A2979 RMK A01 T01361016  RH  035%=      5-min Rain = 0
KCL1 212043Z 15016KT 14/M02 A2978 RMK A01 T01361018  RH  034%=      5-min Rain = 0
KCL1 212044Z 15013KT 14/M02 A2979 RMK A01 T01351018  RH  035%=      5-min Rain = 0
KCL1 212045Z 15013KT 14/M02 A2979 RMK A01 T01361017  RH  035%=      5-min Rain = 0
KCL1 212046Z 13013G18KT 14/M02 A2979 RMK A01 T01381017  RH  034%=      5-min Rain = 0
KCL1 212047Z 13018KT 14/M02 A2979 RMK A01 T01381016  RH  034%=      5-min Rain = 0
KCL1 212048Z 13016KT 14/M02 A2979 RMK A01 T01381016  RH  034%=      5-min Rain = 0
KCL1 212049Z 14014KT 14/M02 A2979 RMK A01 T01371017  RH  035%=      5-min Rain = 0
KCL1 212050Z 14012KT 14/M02 A2979 RMK A01 T01371017  RH  035%=      5-min Rain = 0
KCL1 212051Z 15012G17KT 14/M02 A2979 RMK A01 T01371017  RH  035%=      5-min Rain = 0
KCL1 212052Z 16013KT 14/M02 A2979 RMK A01 T01391016  RH  034%=      5-min Rain = 0
KCL1 212053Z 16014KT 14/M02 A2978 RMK A01 T01411019  RH  033%=      5-min Rain = 0
KCL1 212054Z 15017KT 14/M02 A2978 RMK A01 T01411018  RH  033%=      5-min Rain = 0
KCL1 212055Z 15016KT 14/M02 A2978 RMK A01 T01421019  RH  033%=      5-min Rain = 0
KCL1 212056Z 16015KT 14/M02 A2978 RMK A01 T01421020  RH  033%=      5-min Rain = 0
KCL1 212057Z 16011KT 14/M02 A2978 RMK A01 T01401020  RH  033%=      5-min Rain = 0
KCL1 212058Z 14016KT 14/M02 A2978 RMK A01 T01411017  RH  034%=      5-min Rain = 0
KCL1 212059Z 14017KT 14/M02 A2978 RMK A01 T01431015  RH  034%=      5-min Rain = 0
KCL1 212100Z 13014G20KT 14/M02 A2978 RMK A01 T01431015  RH  034%=      5-min Rain = 0
KCL1 212101Z 12015G20KT 14/M02 A2979 RMK A01 T01421015  RH  034%=      5-min Rain = 0
KCL1 212102Z 12018G23KT 14/M01 A2978 RMK A01 T01421014  RH  034%=      5-min Rain = 0
KCL1 212103Z 13017G22KT 14/M02 A2978 RMK A01 T01421016  RH  034%=      5-min Rain = 0
KCL1 212104Z 13020KT 14/M02 A2978 RMK A01 T01401016  RH  034%=      5-min Rain = 0
KCL1 212105Z 13018KT 14/M02 A2978 RMK A01 T01361018  RH  034%=      5-min Rain = 0
KCL1 212106Z 12017KT 13/M02 A2978 RMK A01 T01311020  RH  035%=      5-min Rain = 0
KCL1 212107Z 12015KT 13/M02 A2978 RMK A01 T01301018  RH  036%=      5-min Rain = 0
KCL1 212108Z 11015G21KT 13/M01 A2978 RMK A01 T01341014  RH  036%=      5-min Rain = 0
KCL1 212109Z 11017KT 14/M02 A2978 RMK A01 T01371015  RH  035%=      5-min Rain = 0
KCL1 212110Z 11018KT 14/M02 A2978 RMK A01 T01381016  RH  035%=      5-min Rain = 0
KCL1 212111Z 12016KT 14/M02 A2978 RMK A01 T01391016  RH  034%=      5-min Rain = 0
KCL1 212112Z 12016KT 14/M01 A2977 RMK A01 T01401014  RH  034%=      5-min Rain = 0
KCL1 212113Z 13017KT 14/M01 A2977 RMK A01 T01421014  RH  034%=      5-min Rain = 0
KCL1 212114Z 13017KT 14/M02 A2977 RMK A01 T01431016  RH  033%=      5-min Rain = 0
KCL1 212115Z 15018G23KT 14/M02 A2977 RMK A01 T01431017  RH  033%=      5-min Rain = 0
KCL1 212116Z 15021G28KT 14/M02 A2977 RMK A01 T01441019  RH  032%=      5-min Rain = 0
KCL1 212117Z 14018G24KT 14/M02 A2977 RMK A01 T01441020  RH  032%=      5-min Rain = 0
KCL1 212118Z 17017KT 14/M02 A2977 RMK A01 T01421020  RH  033%=      5-min Rain = 0
KCL1 212119Z 15012G17KT 14/M02 A2977 RMK A01 T01421019  RH  033%=      5-min Rain = 0
KCL1 212120Z 14014KT 14/M02 A2977 RMK A01 T01441015  RH  033%=      5-min Rain = 0
KCL1 212121Z 13014KT 15/M02 A2977 RMK A01 T01461016  RH  033%=      5-min Rain = 0
KCL1 212122Z 13014KT 15/M01 A2977 RMK A01 T01481014  RH  033%=      5-min Rain = 0
KCL1 212123Z 13018KT 15/M02 A2977 RMK A01 T01491015  RH  032%=      5-min Rain = 0
KCL1 212124Z 13018KT 15/M02 A2977 RMK A01 T01481017  RH  032%=      5-min Rain = 0
KCL1 212125Z 15017G22KT 15/M02 A2977 RMK A01 T01501016  RH  032%=      5-min Rain = 0
KCL1 212126Z 15015KT 15/M02 A2977 RMK A01 T01521018  RH  031%=      5-min Rain = 0
KCL1 212127Z 16017KT 15/M02 A2977 RMK A01 T01511020  RH  031%=      5-min Rain = 0
KCL1 212128Z 16016KT 15/M02 A2977 RMK A01 T01481021  RH  031%=      5-min Rain = 0
KCL1 212129Z 15014G21KT 14/M02 A2977 RMK A01 T01441022  RH  032%=      5-min Rain = 0
KCL1 212130Z 15018KT 14/M02 A2977 RMK A01 T01431021  RH  032%=      5-min Rain = 0
KCL1 212131Z 17012G21KT 14/M02 A2978 RMK A01 T01441020  RH  032%=      5-min Rain = 0
KCL1 212132Z 17015KT 15/M02 A2977 RMK A01 T01461019  RH  032%=      5-min Rain = 0
KCL1 212133Z 16016KT 15/M02 A2978 RMK A01 T01491019  RH  031%=      5-min Rain = 0
KCL1 212134Z 17012KT 15/M02 A2978 RMK A01 T01481020  RH  031%=      5-min Rain = 0
KCL1 212135Z 17013KT 15/M02 A2978 RMK A01 T01491020  RH  031%=      5-min Rain = 0
KCL1 212136Z 16010G15KT 15/M02 A2978 RMK A01 T01491020  RH  031%=      5-min Rain = 0
KCL1 212137Z 17014KT 15/M02 A2978 RMK A01 T01491020  RH  031%=      5-min Rain = 0
KCL1 212138Z 16013KT 15/M02 A2978 RMK A01 T01491020  RH  031%=      5-min Rain = 0
KCL1 212139Z 15015G22KT 15/M02 A2978 RMK A01 T01481021  RH  031%=      5-min Rain = 0
KCL1 212140Z 14017G22KT 15/M02 A2977 RMK A01 T01481021  RH  031%=      5-min Rain = 0
KCL1 212141Z 15017KT 15/M02 A2977 RMK A01 T01471022  RH  031%=      5-min Rain = 0
KCL1 212142Z 17014KT 15/M02 A2977 RMK A01 T01471022  RH  031%=      5-min Rain = 0
KCL1 212143Z 18014G20KT 15/M02 A2977 RMK A01 T01481022  RH  031%=      5-min Rain = 0
KCL1 212144Z 18018KT 15/M02 A2977 RMK A01 T01481022  RH  031%=      5-min Rain = 0
KCL1 212145Z 17013G20KT 15/M02 A2978 RMK A01 T01481022  RH  031%=      5-min Rain = 0
KCL1 212146Z 14011KT 15/M02 A2978 RMK A01 T01461021  RH  031%=      5-min Rain = 0
KCL1 212147Z 13015KT 15/M02 A2977 RMK A01 T01471020  RH  032%=      5-min Rain = 0
KCL1 212148Z 17015KT 15/M02 A2977 RMK A01 T01481020  RH  031%=      5-min Rain = 0
KCL1 212149Z 18013KT 15/M02 A2977 RMK A01 T01471022  RH  031%=      5-min Rain = 0
KCL1 212150Z 17016G21KT 15/M02 A2977 RMK A01 T01471022  RH  031%=      5-min Rain = 0
KCL1 212151Z 17017KT 15/M02 A2977 RMK A01 T01471022  RH  031%=      5-min Rain = 0
KCL1 212152Z 17019G24KT 15/M02 A2977 RMK A01 T01461023  RH  031%=      5-min Rain = 0
KCL1 212153Z 16019G24KT 14/M02 A2977 RMK A01 T01421024  RH  032%=      5-min Rain = 0
KCL1 212154Z 16018KT 14/M03 A2977 RMK A01 T01381025  RH  032%=      5-min Rain = 0
KCL1 212155Z 15015KT 14/M02 A2978 RMK A01 T01361024  RH  033%=      5-min Rain = 0
KCL1 212156Z 15013G19KT 14/M02 A2978 RMK A01 T01361023  RH  033%=      5-min Rain = 0
KCL1 212157Z 15013KT 14/M02 A2978 RMK A01 T01351023  RH  033%=      5-min Rain = 0
KCL1 212158Z 16016KT 14/M02 A2978 RMK A01 T01361023  RH  033%=      5-min Rain = 0
KCL1 212159Z 15013KT 13/M02 A2977 RMK A01 T01341024  RH  033%=      5-min Rain = 0
KCL1 212200Z 16013KT 13/M02 A2978 RMK A01 T01331023  RH  034%=      5-min Rain = 0
KCL1 212201Z 16017KT 13/M02 A2977 RMK A01 T01321021  RH  035%=      5-min Rain = 0
KCL1 212202Z 14017KT 13/M02 A2978 RMK A01 T01311020  RH  035%=      5-min Rain = 0
KCL1 212203Z 14019KT 13/M02 A2978 RMK A01 T01301018  RH  036%=      5-min Rain = 0
KCL1 212204Z 13019KT 13/M02 A2978 RMK A01 T01311015  RH  036%=      5-min Rain = 0
KCL1 212205Z 13014KT 13/M01 A2978 RMK A01 T01341012  RH  036%=      5-min Rain = 0
KCL1 212206Z 13018KT 14/M01 A2978 RMK A01 T01371012  RH  036%=      5-min Rain = 0
KCL1 212207Z 13019G24KT 14/M01 A2978 RMK A01 T01381013  RH  035%=      5-min Rain = 0
KCL1 212208Z 12018KT 14/M01 A2978 RMK A01 T01381014  RH  035%=      5-min Rain = 0
KCL1 212209Z 13017KT 14/M02 A2978 RMK A01 T01351015  RH  035%=      5-min Rain = 0
KCL1 212210Z 13015KT 13/M02 A2978 RMK A01 T01321016  RH  036%=      5-min Rain = 0
KCL1 212211Z 13012KT 13/M02 A2978 RMK A01 T01311015  RH  037%=      5-min Rain = 0
KCL1 212212Z 13014G20KT 13/M01 A2978 RMK A01 T01321013  RH  037%=      5-min Rain = 0
KCL1 212213Z 13015KT 14/M01 A2978 RMK A01 T01361011  RH  036%=      5-min Rain = 0
KCL1 212214Z 13017G22KT 14/M01 A2978 RMK A01 T01381012  RH  036%=      5-min Rain = 0
KCL1 212215Z 13017KT 14/M01 A2978 RMK A01 T01391012  RH  035%=      5-min Rain = 0
KCL1 212216Z 13021G26KT 14/M01 A2978 RMK A01 T01401013  RH  035%=      5-min Rain = 0
KCL1 212217Z 13018KT 14/M01 A2978 RMK A01 T01401014  RH  035%=      5-min Rain = 0
KCL1 212218Z 13017KT 14/M01 A2978 RMK A01 T01391014  RH  035%=      5-min Rain = 0
KCL1 212219Z 11017KT 14/M01 A2978 RMK A01 T01381014  RH  035%=      5-min Rain = 0
KCL1 212220Z 13015KT 14/M01 A2978 RMK A01 T01381013  RH  035%=      5-min Rain = 0
KCL1 212221Z 13015G20KT 14/M01 A2978 RMK A01 T01401012  RH  035%=      5-min Rain = 0
KCL1 212222Z 13014KT 14/M01 A2978 RMK A01 T01411011  RH  035%=      5-min Rain = 0
KCL1 212223Z 14018KT 14/M01 A2978 RMK A01 T01441012  RH  034%=      5-min Rain = 0
KCL1 212224Z 14016KT 14/M01 A2978 RMK A01 T01431013  RH  034%=      5-min Rain = 0
KCL1 212225Z 12017KT 14/M01 A2978 RMK A01 T01421012  RH  034%=      5-min Rain = 0
KCL1 212226Z 12019KT 14/M01 A2978 RMK A01 T01421012  RH  035%=      5-min Rain = 0
KCL1 212227Z 13016KT 14/M01 A2978 RMK A01 T01401013  RH  035%=      5-min Rain = 0
KCL1 212228Z 13018G24KT 14/M01 A2978 RMK A01 T01401013  RH  035%=      5-min Rain = 0
KCL1 212229Z 13017KT 14/M01 A2978 RMK A01 T01401012  RH  035%=      5-min Rain = 0
KCL1 212230Z 13019KT 14/M01 A2978 RMK A01 T01401012  RH  035%=      5-min Rain = 0
KCL1 212231Z 13017KT 14/M01 A2978 RMK A01 T01401012  RH  035%=      5-min Rain = 0
KCL1 212232Z 11017G22KT 14/M01 A2978 RMK A01 T01391012  RH  035%=      5-min Rain = 0
KCL1 212233Z 12020KT 14/M01 A2978 RMK A01 T01381012  RH  035%=      5-min Rain = 0
KCL1 212234Z 12018KT 14/M01 A2978 RMK A01 T01371013  RH  036%=      5-min Rain = 0
KCL1 212235Z 12017KT 14/M01 A2978 RMK A01 T01361013  RH  036%=      5-min Rain = 0
KCL1 212236Z 11018KT 14/M01 A2978 RMK A01 T01361012  RH  036%=      5-min Rain = 0
KCL1 212237Z 13013G18KT 14/M01 A2978 RMK A01 T01361012  RH  036%=      5-min Rain = 0
KCL1 212238Z 12016KT 14/M01 A2978 RMK A01 T01371010  RH  036%=      5-min Rain = 0
KCL1 212239Z 12016G21KT 14/M01 A2978 RMK A01 T01381010  RH  036%=      5-min Rain = 0
KCL1 212240Z 12018KT 14/M01 A2978 RMK A01 T01381011  RH  036%=      5-min Rain = 0
KCL1 212241Z 13017G24KT 14/M01 A2978 RMK A01 T01371011  RH  036%=      5-min Rain = 0
KCL1 212242Z 12016G22KT 14/M01 A2978 RMK A01 T01371011  RH  036%=      5-min Rain = 0
KCL1 212243Z 11017KT 14/M01 A2978 RMK A01 T01361011  RH  036%=      5-min Rain = 0
KCL1 212244Z 12022KT 14/M01 A2978 RMK A01 T01361011  RH  036%=      5-min Rain = 0
KCL1 212245Z 14018G23KT 14/M01 A2978 RMK A01 T01361012  RH  036%=      5-min Rain = 0
KCL1 212246Z 13021KT 14/M01 A2978 RMK A01 T01351012  RH  036%=      5-min Rain = 0
KCL1 212247Z 12018KT 13/M01 A2978 RMK A01 T01341012  RH  036%=      5-min Rain = 0
KCL1 212248Z 12019KT 13/M01 A2978 RMK A01 T01341012  RH  037%=      5-min Rain = 0
KCL1 212249Z 12020KT 13/M01 A2978 RMK A01 T01331012  RH  037%=      5-min Rain = 0
KCL1 212250Z 12017G22KT 13/M01 A2978 RMK A01 T01331011  RH  037%=      5-min Rain = 0
KCL1 212251Z 12019KT 13/M01 A2978 RMK A01 T01341011  RH  037%=      5-min Rain = 0
KCL1 212252Z 12017G22KT 13/M01 A2978 RMK A01 T01341011  RH  037%=      5-min Rain = 0
KCL1 212253Z 13019KT 13/M01 A2978 RMK A01 T01341012  RH  037%=      5-min Rain = 0
KCL1 212254Z 12021KT 13/M01 A2978 RMK A01 T01341011  RH  037%=      5-min Rain = 0
KCL1 212255Z 12018KT 13/M01 A2978 RMK A01 T01331012  RH  037%=      5-min Rain = 0
KCL1 212256Z 12019G26KT 13/M01 A2978 RMK A01 T01331011  RH  037%=      5-min Rain = 0
KCL1 212257Z 12021G26KT 13/M01 A2978 RMK A01 T01331011  RH  037%=      5-min Rain = 0
KCL1 212258Z 12020G25KT 13/M01 A2978 RMK A01 T01331012  RH  037%=      5-min Rain = 0
KCL1 212259Z 12020KT 13/M01 A2978 RMK A01 T01321012  RH  037%=      5-min Rain = 0
KCL1 212300Z 13021KT 13/M01 A2978 RMK A01 T01321012  RH  037%=      5-min Rain = 0
KCL1 212301Z 13021KT 13/M01 A2978 RMK A01 T01311012  RH  037%=      5-min Rain = 0
KCL1 212302Z 13019G24KT 13/M01 A2978 RMK A01 T01301012  RH  037%=      5-min Rain = 0
KCL1 212303Z 13016G21KT 13/M01 A2978 RMK A01 T01301012  RH  038%=      5-min Rain = 0
KCL1 212304Z 13020KT 13/M01 A2978 RMK A01 T01301012  RH  038%=      5-min Rain = 0
KCL1 212305Z 13020G26KT 13/M01 A2978 RMK A01 T01291012  RH  038%=      5-min Rain = 0
KCL1 212306Z 13017KT 13/M01 A2978 RMK A01 T01281012  RH  038%=      5-min Rain = 0
KCL1 212307Z 13019G24KT 13/M01 A2978 RMK A01 T01281011  RH  038%=      5-min Rain = 0
KCL1 212308Z 12017KT 13/M01 A2978 RMK A01 T01281011  RH  038%=      5-min Rain = 0
KCL1 212309Z 12019G25KT 13/M01 A2978 RMK A01 T01281011  RH  038%=      5-min Rain = 0
KCL1 212310Z 11018G23KT 13/M01 A2978 RMK A01 T01271012  RH  038%=      5-min Rain = 0
KCL1 212311Z 12019KT 13/M01 A2978 RMK A01 T01271012  RH  038%=      5-min Rain = 0
KCL1 212312Z 12020KT 13/M01 A2978 RMK A01 T01271012  RH  038%=      5-min Rain = 0
KCL1 212313Z 11021KT 13/M01 A2978 RMK A01 T01261012  RH  038%=      5-min Rain = 0
KCL1 212314Z 12016G22KT 13/M01 A2978 RMK A01 T01251012  RH  038%=      5-min Rain = 0
KCL1 212315Z 13020KT 13/M01 A2978 RMK A01 T01261011  RH  039%=      5-min Rain = 0
KCL1 212316Z 13018G24KT 13/M01 A2978 RMK A01 T01261011  RH  039%=      5-min Rain = 0
KCL1 212317Z 13023KT 13/M01 A2978 RMK A01 T01261012  RH  039%=      5-min Rain = 0
KCL1 212318Z 12017G23KT 13/M01 A2978 RMK A01 T01261012  RH  039%=      5-min Rain = 0
KCL1 212319Z 13020G25KT 13/M01 A2978 RMK A01 T01251012  RH  039%=      5-min Rain = 0
KCL1 212320Z 12019KT 13/M01 A2978 RMK A01 T01251012  RH  039%=      5-min Rain = 0
KCL1 212321Z 12022KT 13/M01 A2978 RMK A01 T01251012  RH  039%=      5-min Rain = 0
KCL1 212322Z 12021KT 12/M01 A2978 RMK A01 T01241013  RH  039%=      5-min Rain = 0
KCL1 212323Z 13022G27KT 12/M01 A2978 RMK A01 T01231013  RH  039%=      5-min Rain = 0
KCL1 212324Z 12021G27KT 12/M01 A2978 RMK A01 T01221013  RH  039%=      5-min Rain = 0
KCL1 212325Z 12022KT 12/M01 A2978 RMK A01 T01221013  RH  039%=      5-min Rain = 0
KCL1 212326Z 13022KT 12/M01 A2978 RMK A01 T01211013  RH  039%=      5-min Rain = 0
KCL1 212327Z 12020KT 12/M01 A2978 RMK A01 T01211013  RH  039%=      5-min Rain = 0
KCL1 212328Z 13019KT 12/M01 A2978 RMK A01 T01211013  RH  039%=      5-min Rain = 0
KCL1 212329Z 12019G24KT 12/M01 A2978 RMK A01 T01211013  RH  039%=      5-min Rain = 0
KCL1 212330Z 12021G27KT 12/M01 A2978 RMK A01 T01211013  RH  039%=      5-min Rain = 0
KCL1 212331Z 12024KT 12/M01 A2978 RMK A01 T01211013  RH  039%=      5-min Rain = 0
KCL1 212332Z 12020KT 12/M01 A2978 RMK A01 T01201013  RH  039%=      5-min Rain = 0
KCL1 212333Z 12021KT 12/M01 A2978 RMK A01 T01201013  RH  040%=      5-min Rain = 0
KCL1 212334Z 12020G25KT 12/M01 A2978 RMK A01 T01191014  RH  040%=      5-min Rain = 0
KCL1 212335Z 11021KT 12/M01 A2978 RMK A01 T01191014  RH  040%=      5-min Rain = 0
KCL1 212336Z 12018KT 12/M01 A2978 RMK A01 T01191014  RH  040%=      5-min Rain = 0
KCL1 212337Z 12022KT 12/M01 A2978 RMK A01 T01181014  RH  040%=      5-min Rain = 0
KCL1 212338Z 12020G25KT 12/M01 A2978 RMK A01 T01181014  RH  040%=      5-min Rain = 0
KCL1 212339Z 13020G28KT 12/M01 A2978 RMK A01 T01191013  RH  040%=      5-min Rain = 0
KCL1 212340Z 14017KT 12/M01 A2978 RMK A01 T01181013  RH  040%=      5-min Rain = 0
KCL1 212341Z 13016KT 12/M01 A2978 RMK A01 T01191012  RH  040%=      5-min Rain = 0
KCL1 212342Z 12018KT 12/M01 A2978 RMK A01 T01191013  RH  040%=      5-min Rain = 0
KCL1 212343Z 12018G23KT 12/M01 A2978 RMK A01 T01181013  RH  040%=      5-min Rain = 0
KCL1 212344Z 12017G22KT 12/M01 A2978 RMK A01 T01181013  RH  040%=      5-min Rain = 0
KCL1 212345Z 13015G21KT 12/M01 A2978 RMK A01 T01171013  RH  040%=      5-min Rain = 0
KCL1 212346Z 12016KT 12/M01 A2978 RMK A01 T01171013  RH  040%=      5-min Rain = 0
KCL1 212347Z 12017KT 12/M01 A2978 RMK A01 T01171013  RH  040%=      5-min Rain = 0
KCL1 212348Z 12019G24KT 12/M02 A2979 RMK A01 T01161015  RH  040%=      5-min Rain = 0
KCL1 212349Z 11020KT 12/M02 A2979 RMK A01 T01151015  RH  040%=      5-min Rain = 0
KCL1 212350Z 12018G23KT 11/M02 A2979 RMK A01 T01141016  RH  041%=      5-min Rain = 0
KCL1 212351Z 12019KT 11/M02 A2979 RMK A01 T01131015  RH  041%=      5-min Rain = 0
KCL1 212352Z 12020KT 11/M02 A2979 RMK A01 T01131015  RH  041%=      5-min Rain = 0
KCL1 212353Z 12021KT 11/M02 A2979 RMK A01 T01121015  RH  041%=      5-min Rain = 0
KCL1 212354Z 12018KT 11/M02 A2979 RMK A01 T01121015  RH  041%=      5-min Rain = 0
KCL1 212355Z 12019G24KT 11/M02 A2979 RMK A01 T01121015  RH  041%=      5-min Rain = 0
KCL1 212356Z 12021KT 11/M02 A2979 RMK A01 T01111016  RH  041%=      5-min Rain = 0
KCL1 212357Z 11021G26KT 11/M02 A2979 RMK A01 T01111016  RH  041%=      5-min Rain = 0
KCL1 212358Z 12019KT 11/M02 A2979 RMK A01 T01101016  RH  041%=      5-min Rain = 0
KCL1 212359Z 12019KT 11/M02 A2979 RMK A01 T01101016  RH  042%=      5-min Rain = 0
KCL1 220000Z 12020G25KT 11/M02 A2979 RMK A01 T01091016  RH  042%=      5-min Rain = 0
KCL1 220001Z 12021G26KT 11/M02 A2979 RMK A01 T01091016  RH  042%=      5-min Rain = 0
KCL1 220002Z 12020G27KT 11/M02 A2979 RMK A01 T01081016  RH  042%=      5-min Rain = 0
KCL1 220003Z 13023KT 11/M02 A2979 RMK A01 T01081016  RH  042%=      5-min Rain = 0
KCL1 220004Z 13021KT 11/M02 A2979 RMK A01 T01071016  RH  042%=      5-min Rain = 0
KCL1 220005Z 13019KT 11/M02 A2979 RMK A01 T01071016  RH  042%=      5-min Rain = 0
KCL1 220006Z 12018G23KT 11/M02 A2979 RMK A01 T01071016  RH  042%=      5-min Rain = 0
KCL1 220007Z 12021KT 11/M02 A2979 RMK A01 T01071016  RH  042%=      5-min Rain = 0
KCL1 220008Z 12020G26KT 11/M02 A2979 RMK A01 T01061017  RH  042%=      5-min Rain = 0
KCL1 220009Z 13018KT 11/M02 A2979 RMK A01 T01051017  RH  042%=      5-min Rain = 0
KCL1 220010Z 12018KT 11/M02 A298 RMK A01 T01051017  RH  043%=      5-min Rain = 0
KCL1 220011Z 12020KT 10/M02 A298 RMK A01 T01041017  RH  043%=      5-min Rain = 0
KCL1 220012Z 12021G26KT 10/M02 A298 RMK A01 T01041017  RH  043%=      5-min Rain = 0
KCL1 220013Z 12021KT 10/M02 A298 RMK A01 T01031018  RH  043%=      5-min Rain = 0
KCL1 220014Z 12021KT 10/M02 A298 RMK A01 T01021018  RH  043%=      5-min Rain = 0
KCL1 220015Z 12017KT 10/M02 A298 RMK A01 T01021018  RH  043%=      5-min Rain = 0
KCL1 220016Z 12015KT 10/M02 A298 RMK A01 T01011018  RH  043%=      5-min Rain = 0
KCL1 220017Z 12017G22KT 10/M02 A298 RMK A01 T01001019  RH  044%=      5-min Rain = 0
KCL1 220018Z 12017G22KT 10/M02 A298 RMK A01 T00991018  RH  044%=      5-min Rain = 0
KCL1 220019Z 12019G24KT 10/M02 A298 RMK A01 T00991018  RH  044%=      5-min Rain = 0
KCL1 220020Z 12019G24KT 10/M02 A298 RMK A01 T00991019  RH  044%=      5-min Rain = 0
KCL1 220021Z 12021KT 10/M02 A298 RMK A01 T00991019  RH  044%=      5-min Rain = 0
KCL1 220022Z 12019KT 10/M02 A298 RMK A01 T00991019  RH  044%=      5-min Rain = 0
KCL1 220023Z 12019G24KT 10/M02 A2981 RMK A01 T00991019  RH  044%=      5-min Rain = 0
KCL1 220024Z 13020KT 10/M02 A2981 RMK A01 T00981019  RH  044%=      5-min Rain = 0
KCL1 220025Z 12022KT 10/M02 A2981 RMK A01 T00981019  RH  044%=      5-min Rain = 0
KCL1 220026Z 12024KT 10/M02 A2981 RMK A01 T00981019  RH  044%=      5-min Rain = 0
KCL1 220027Z 13019KT 10/M02 A2981 RMK A01 T00981019  RH  044%=      5-min Rain = 0
KCL1 220028Z 12018KT 10/M02 A2981 RMK A01 T00981020  RH  044%=      5-min Rain = 0
KCL1 220029Z 12018KT 10/M02 A2981 RMK A01 T00981020  RH  044%=      5-min Rain = 0
KCL1 220030Z 12019G24KT 10/M02 A2981 RMK A01 T00971020  RH  044%=      5-min Rain = 0
KCL1 220031Z 13020KT 10/M02 A2981 RMK A01 T00961020  RH  044%=      5-min Rain = 0
KCL1 220032Z 12019G24KT 10/M02 A2981 RMK A01 T00961020  RH  044%=      5-min Rain = 0
KCL1 220033Z 12021KT 10/M02 A2981 RMK A01 T00961020  RH  044%=      5-min Rain = 0
KCL1 220034Z 12019G24KT 10/M02 A2981 RMK A01 T00961020  RH  044%=      5-min Rain = 0
KCL1 220035Z 12015KT 10/M02 A2981 RMK A01 T00951020  RH  044%=      5-min Rain = 0
KCL1 220036Z 12016KT 09/M02 A2981 RMK A01 T00941021  RH  045%=      5-min Rain = 0
KCL1 220037Z 12020KT 09/M02 A2981 RMK A01 T00931021  RH  045%=      5-min Rain = 0
KCL1 220038Z 12018KT 09/M02 A2981 RMK A01 T00931021  RH  045%=      5-min Rain = 0
KCL1 220039Z 12017G22KT 09/M02 A2981 RMK A01 T00931021  RH  045%=      5-min Rain = 0
KCL1 220040Z 12019KT 09/M02 A2981 RMK A01 T00921021  RH  045%=      5-min Rain = 0
KCL1 220041Z 12017KT 09/M02 A2982 RMK A01 T00931021  RH  045%=      5-min Rain = 0
KCL1 220042Z 12017G22KT 09/M02 A2982 RMK A01 T00931020  RH  045%=      5-min Rain = 0
KCL1 220043Z 12019KT 09/M02 A2982 RMK A01 T00931021  RH  045%=      5-min Rain = 0
KCL1 220044Z 12018KT 09/M02 A2982 RMK A01 T00921020  RH  045%=      5-min Rain = 0
KCL1 220045Z 12015KT 09/M02 A2982 RMK A01 T00921021  RH  045%=      5-min Rain = 0
KCL1 220046Z 12013KT 09/M02 A2982 RMK A01 T00911021  RH  045%=      5-min Rain = 0
KCL1 220047Z 12018KT 09/M02 A2982 RMK A01 T00901021  RH  046%=      5-min Rain = 0
KCL1 220048Z 13016KT 09/M02 A2982 RMK A01 T00901021  RH  046%=      5-min Rain = 0
KCL1 220049Z 12017KT 09/M02 A2982 RMK A01 T00901021  RH  046%=      5-min Rain = 0
KCL1 220050Z 12018KT 09/M02 A2982 RMK A01 T00901021  RH  046%=      5-min Rain = 0
KCL1 220051Z 12019KT 09/M02 A2982 RMK A01 T00891021  RH  046%=      5-min Rain = 0
KCL1 220052Z 12017KT 09/M02 A2982 RMK A01 T00891021  RH  046%=      5-min Rain = 0
KCL1 220053Z 12017G22KT 09/M02 A2982 RMK A01 T00881022  RH  046%=      5-min Rain = 0
KCL1 220054Z 12019G24KT 09/M02 A2982 RMK A01 T00871022  RH  046%=      5-min Rain = 0
KCL1 220055Z 12020KT 09/M02 A2982 RMK A01 T00881021  RH  046%=      5-min Rain = 0
KCL1 220056Z 12014KT 09/M02 A2982 RMK A01 T00881021  RH  046%=      5-min Rain = 0
KCL1 220057Z 12019KT 09/M02 A2982 RMK A01 T00881022  RH  046%=      5-min Rain = 0
KCL1 220058Z 12016KT 09/M02 A2982 RMK A01 T00871022  RH  046%=      5-min Rain = 0
KCL1 220059Z 12016KT 09/M02 A2982 RMK A01 T00861022  RH  047%=      5-min Rain = 0
KCL1 220100Z 12019G24KT 09/M02 A2982 RMK A01 T00851022  RH  047%=      5-min Rain = 0
KCL1 220101Z 12018KT 09/M02 A2982 RMK A01 T00851022  RH  047%=      5-min Rain = 0
KCL1 220102Z 12018KT 09/M02 A2982 RMK A01 T00861022  RH  047%=      5-min Rain = 0
KCL1 220103Z 12016KT 09/M02 A2983 RMK A01 T00861022  RH  047%=      5-min Rain = 0
KCL1 220104Z 12017KT 09/M02 A2983 RMK A01 T00851023  RH  047%=      5-min Rain = 0
KCL1 220105Z 12016KT 09/M02 A2983 RMK A01 T00851022  RH  047%=      5-min Rain = 0
KCL1 220106Z 12014G19KT 08/M02 A2983 RMK A01 T00841023  RH  047%=      5-min Rain = 0
KCL1 220107Z 12015G21KT 08/M02 A2983 RMK A01 T00831023  RH  047%=      5-min Rain = 0
KCL1 220108Z 12017KT 08/M02 A2983 RMK A01 T00821023  RH  047%=      5-min Rain = 0
KCL1 220109Z 12016KT 08/M02 A2983 RMK A01 T00821023  RH  047%=      5-min Rain = 0
KCL1 220110Z 12017G22KT 08/M02 A2983 RMK A01 T00821024  RH  047%=      5-min Rain = 0
KCL1 220111Z 12015KT 08/M02 A2983 RMK A01 T00821024  RH  047%=      5-min Rain = 0
KCL1 220112Z 12016KT 08/M02 A2983 RMK A01 T00821024  RH  047%=      5-min Rain = 0
KCL1 220113Z 12017G22KT 08/M02 A2983 RMK A01 T00811024  RH  047%=      5-min Rain = 0
KCL1 220114Z 12018KT 08/M02 A2983 RMK A01 T00811024  RH  047%=      5-min Rain = 0
KCL1 220115Z 12014KT 08/M02 A2983 RMK A01 T00821024  RH  047%=      5-min Rain = 0
KCL1 220116Z 12015KT 08/M03 A2983 RMK A01 T00811025  RH  047%=      5-min Rain = 0
KCL1 220117Z 12021KT 08/M03 A2983 RMK A01 T00801025  RH  047%=      5-min Rain = 0
KCL1 220118Z 13018KT 08/M03 A2983 RMK A01 T00801025  RH  047%=      5-min Rain = 0
KCL1 220119Z 13015KT 08/M03 A2983 RMK A01 T00811025  RH  047%=      5-min Rain = 0
KCL1 220120Z 12015KT 08/M03 A2983 RMK A01 T00811025  RH  047%=      5-min Rain = 0
KCL1 220121Z 12015KT 08/M03 A2983 RMK A01 T00801025  RH  047%=      5-min Rain = 0
KCL1 220122Z 12018G24KT 08/M03 A2983 RMK A01 T00791026  RH  047%=      5-min Rain = 0
KCL1 220123Z 12016KT 08/M03 A2984 RMK A01 T00791026  RH  048%=      5-min Rain = 0
KCL1 220124Z 13017KT 08/M03 A2984 RMK A01 T00791026  RH  047%=      5-min Rain = 0
KCL1 220125Z 12015KT 08/M03 A2984 RMK A01 T00781026  RH  047%=      5-min Rain = 0
KCL1 220126Z 11014KT 08/M03 A2984 RMK A01 T00781026  RH  048%=      5-min Rain = 0
KCL1 220127Z 11014KT 08/M03 A2984 RMK A01 T00771027  RH  048%=      5-min Rain = 0
KCL1 220128Z 11012KT 08/M03 A2984 RMK A01 T00761027  RH  048%=      5-min Rain = 0
KCL1 220129Z 11014KT 07/M03 A2984 RMK A01 T00741028  RH  048%=      5-min Rain = 0
KCL1 220130Z 11014G19KT 07/M03 A2984 RMK A01 T00731028  RH  049%=      5-min Rain = 0
KCL1 220131Z 12015KT 07/M03 A2984 RMK A01 T00721028  RH  049%=      5-min Rain = 0
KCL1 220132Z 12011KT 07/M03 A2984 RMK A01 T00711028  RH  049%=      5-min Rain = 0
KCL1 220133Z 12013KT 07/M03 A2984 RMK A01 T00711028  RH  049%=      5-min Rain = 0
KCL1 220134Z 12017G23KT 07/M03 A2984 RMK A01 T00701028  RH  050%=      5-min Rain = 0
KCL1 220135Z 12020KT 07/M03 A2984 RMK A01 T00701028  RH  049%=      5-min Rain = 0
KCL1 220136Z 12017KT 07/M03 A2984 RMK A01 T00721028  RH  049%=      5-min Rain = 0
KCL1 220137Z 12016KT 07/M03 A2984 RMK A01 T00731028  RH  049%=      5-min Rain = 0
KCL1 220138Z 12015KT 07/M03 A2984 RMK A01 T00731029  RH  048%=      5-min Rain = 0
KCL1 220139Z 12017G22KT 07/M03 A2984 RMK A01 T00731029  RH  048%=      5-min Rain = 0
KCL1 220140Z 12018KT 07/M03 A2984 RMK A01 T00721030  RH  048%=      5-min Rain = 0
KCL1 220141Z 12015KT 07/M03 A2985 RMK A01 T00731030  RH  048%=      5-min Rain = 0
KCL1 220142Z 12014KT 07/M03 A2985 RMK A01 T00721030  RH  048%=      5-min Rain = 0
KCL1 220143Z 12018KT 07/M03 A2985 RMK A01 T00701031  RH  049%=      5-min Rain = 0
KCL1 220144Z 12017KT 07/M03 A2985 RMK A01 T00701030  RH  049%=      5-min Rain = 0
KCL1 220145Z 11014KT 07/M03 A2985 RMK A01 T00711030  RH  049%=      5-min Rain = 0
KCL1 220146Z 11016KT 07/M03 A2985 RMK A01 T00701031  RH  049%=      5-min Rain = 0
KCL1 220147Z 11014KT 07/M03 A2985 RMK A01 T00681031  RH  049%=      5-min Rain = 0
KCL1 220148Z 10012KT 07/M03 A2985 RMK A01 T00671031  RH  049%=      5-min Rain = 0
KCL1 220149Z 11013KT 07/M03 A2985 RMK A01 T00651033  RH  050%=      5-min Rain = 0
KCL1 220150Z 11013KT 06/M03 A2985 RMK A01 T00631033  RH  050%=      5-min Rain = 0
KCL1 220151Z 11015KT 06/M03 A2985 RMK A01 T00611033  RH  051%=      5-min Rain = 0
KCL1 220152Z 11014KT 06/M03 A2985 RMK A01 T00611033  RH  051%=      5-min Rain = 0
KCL1 220153Z 11015KT 06/M03 A2985 RMK A01 T00601033  RH  051%=      5-min Rain = 0
KCL1 220154Z 11016KT 06/M03 A2985 RMK A01 T00601033  RH  051%=      5-min Rain = 0
KCL1 220155Z 11015KT 06/M03 A2985 RMK A01 T00601033  RH  051%=      5-min Rain = 0
KCL1 220156Z 11016KT 06/M03 A2985 RMK A01 T00611033  RH  051%=      5-min Rain = 0
KCL1 220157Z 11014KT 06/M03 A2985 RMK A01 T00611033  RH  051%=      5-min Rain = 0
KCL1 220158Z 11014KT 06/M03 A2986 RMK A01 T00601034  RH  051%=      5-min Rain = 0
KCL1 220159Z 11014KT 06/M03 A2986 RMK A01 T00591034  RH  051%=      5-min Rain = 0
KCL1 220200Z 12014KT 06/M03 A2986 RMK A01 T00601034  RH  051%=      5-min Rain = 0
KCL1 220201Z 12012KT 06/M04 A2986 RMK A01 T00591035  RH  051%=      5-min Rain = 0
KCL1 220202Z 11013KT 06/M04 A2986 RMK A01 T00581035  RH  051%=      5-min Rain = 0
KCL1 220203Z 12017KT 06/M04 A2986 RMK A01 T00571035  RH  051%=      5-min Rain = 0
KCL1 220204Z 12018G23KT 06/M04 A2986 RMK A01 T00591035  RH  051%=      5-min Rain = 0
KCL1 220205Z 12018KT 06/M04 A2986 RMK A01 T00601035  RH  050%=      5-min Rain = 0
KCL1 220206Z 12019KT 06/M04 A2985 RMK A01 T00621035  RH  050%=      5-min Rain = 0
KCL1 220207Z 13019G25KT 06/M04 A2986 RMK A01 T00631036  RH  049%=      5-min Rain = 0
KCL1 220208Z 13018G24KT 06/M04 A2986 RMK A01 T00631036  RH  049%=      5-min Rain = 0
KCL1 220209Z 13019G24KT 06/M04 A2986 RMK A01 T00631037  RH  049%=      5-min Rain = 0
KCL1 220210Z 13019G24KT 06/M04 A2986 RMK A01 T00631037  RH  049%=      5-min Rain = 0
KCL1 220211Z 13015G21KT 06/M04 A2986 RMK A01 T00631038  RH  049%=      5-min Rain = 0
KCL1 220212Z 12017KT 06/M04 A2986 RMK A01 T00631038  RH  049%=      5-min Rain = 0
KCL1 220213Z 12017KT 06/M04 A2986 RMK A01 T00621038  RH  049%=      5-min Rain = 0
KCL1 220214Z 13016KT 06/M04 A2986 RMK A01 T00621038  RH  049%=      5-min Rain = 0
KCL1 220215Z 12016KT 06/M04 A2986 RMK A01 T00621038  RH  049%=      5-min Rain = 0
KCL1 220216Z 12017KT 06/M04 A2986 RMK A01 T00611039  RH  049%=      5-min Rain = 0
KCL1 220217Z 12019G24KT 06/M04 A2986 RMK A01 T00611039  RH  049%=      5-min Rain = 0
KCL1 220218Z 12018KT 06/M04 A2986 RMK A01 T00611039  RH  049%=      5-min Rain = 0
KCL1 220219Z 12019KT 06/M04 A2986 RMK A01 T00611039  RH  049%=      5-min Rain = 0
KCL1 220220Z 12019KT 06/M04 A2986 RMK A01 T00611039  RH  049%=      5-min Rain = 0
KCL1 220221Z 12015KT 06/M04 A2986 RMK A01 T00621039  RH  048%=      5-min Rain = 0
KCL1 220222Z 13015KT 06/M04 A2986 RMK A01 T00611039  RH  048%=      5-min Rain = 0
KCL1 220223Z 13014KT 06/M04 A2986 RMK A01 T00601040  RH  049%=      5-min Rain = 0
KCL1 220224Z 12011KT 06/M04 A2987 RMK A01 T00591040  RH  049%=      5-min Rain = 0
KCL1 220225Z 12013G18KT 06/M04 A2987 RMK A01 T00581041  RH  049%=      5-min Rain = 0
KCL1 220226Z 12017KT 06/M04 A2987 RMK A01 T00581041  RH  049%=      5-min Rain = 0
KCL1 220227Z 13015KT 06/M04 A2987 RMK A01 T00581041  RH  049%=      5-min Rain = 0
KCL1 220228Z 12018G23KT 06/M04 A2987 RMK A01 T00581042  RH  049%=      5-min Rain = 0
KCL1 220229Z 13019KT 06/M04 A2987 RMK A01 T00591042  RH  049%=      5-min Rain = 0
KCL1 220230Z 12018G23KT 06/M04 A2987 RMK A01 T00591042  RH  048%=      5-min Rain = 0
KCL1 220231Z 13016KT 06/M04 A2987 RMK A01 T00591042  RH  048%=      5-min Rain = 0
KCL1 220232Z 13016KT 06/M04 A2987 RMK A01 T00591043  RH  048%=      5-min Rain = 0
KCL1 220233Z 13017KT 06/M04 A2987 RMK A01 T00581043  RH  048%=      5-min Rain = 0
KCL1 220234Z 13017KT 06/M04 A2987 RMK A01 T00581044  RH  048%=      5-min Rain = 0
KCL1 220235Z 13020KT 06/M04 A2987 RMK A01 T00581044  RH  048%=      5-min Rain = 0
KCL1 220236Z 13016KT 06/M04 A2987 RMK A01 T00581044  RH  048%=      5-min Rain = 0
KCL1 220237Z 12017KT 06/M05 A2987 RMK A01 T00581045  RH  048%=      5-min Rain = 0
KCL1 220238Z 13017KT 06/M05 A2987 RMK A01 T00581045  RH  048%=      5-min Rain = 0
KCL1 220239Z 12017KT 06/M05 A2987 RMK A01 T00571045  RH  048%=      5-min Rain = 0
KCL1 220240Z 12019KT 06/M05 A2986 RMK A01 T00571045  RH  048%=      5-min Rain = 0
KCL1 220241Z 12020G25KT 06/M05 A2986 RMK A01 T00571046  RH  048%=      5-min Rain = 0
KCL1 220242Z 12020KT 06/M05 A2986 RMK A01 T00571046  RH  048%=      5-min Rain = 0
KCL1 220243Z 12018G24KT 06/M05 A2987 RMK A01 T00571046  RH  047%=      5-min Rain = 0
KCL1 220244Z 12019KT 06/M05 A2987 RMK A01 T00571046  RH  047%=      5-min Rain = 0
KCL1 220245Z 12018KT 06/M05 A2987 RMK A01 T00571046  RH  047%=      5-min Rain = 0
KCL1 220246Z 12016KT 06/M05 A2987 RMK A01 T00571047  RH  047%=      5-min Rain = 0
KCL1 220247Z 13016KT 06/M05 A2987 RMK A01 T00561047  RH  047%=      5-min Rain = 0
KCL1 220248Z 13014KT 06/M05 A2987 RMK A01 T00551047  RH  048%=      5-min Rain = 0
KCL1 220249Z 13015KT 06/M05 A2987 RMK A01 T00551047  RH  048%=      5-min Rain = 0
KCL1 220250Z 12014G19KT 05/M05 A2987 RMK A01 T00541048  RH  048%=      5-min Rain = 0
KCL1 220251Z 13017KT 05/M05 A2987 RMK A01 T00541048  RH  048%=      5-min Rain = 0
KCL1 220252Z 13019KT 05/M05 A2987 RMK A01 T00541048  RH  048%=      5-min Rain = 0
KCL1 220253Z 12017KT 05/M05 A2987 RMK A01 T00541048  RH  048%=      5-min Rain = 0
KCL1 220254Z 12016KT 05/M05 A2987 RMK A01 T00541048  RH  048%=      5-min Rain = 0
KCL1 220255Z 12016KT 05/M05 A2987 RMK A01 T00541048  RH  048%=      5-min Rain = 0
KCL1 220256Z 13012KT 05/M05 A2988 RMK A01 T00541048  RH  048%=      5-min Rain = 0
KCL1 220257Z 13015KT 05/M05 A2988 RMK A01 T00521049  RH  048%=      5-min Rain = 0
KCL1 220258Z 13018KT 05/M05 A2988 RMK A01 T00521049  RH  048%=      5-min Rain = 0
KCL1 220259Z 13016KT 05/M05 A2988 RMK A01 T00531048  RH  048%=      5-min Rain = 0
KCL1 220300Z 12016KT 05/M05 A2988 RMK A01 T00531049  RH  048%=      5-min Rain = 0
KCL1 220301Z 13018KT 05/M05 A2988 RMK A01 T00521049  RH  048%=      5-min Rain = 0
KCL1 220302Z 13020G26KT 05/M05 A2988 RMK A01 T00521049  RH  048%=      5-min Rain = 0
KCL1 220303Z 12020G26KT 05/M05 A2988 RMK A01 T00531050  RH  048%=      5-min Rain = 0
KCL1 220304Z 13016G21KT 05/M05 A2988 RMK A01 T00531049  RH  048%=      5-min Rain = 0
KCL1 220305Z 13016KT 05/M05 A2988 RMK A01 T00531050  RH  047%=      5-min Rain = 0
KCL1 220306Z 12014KT 05/M05 A2988 RMK A01 T00521050  RH  048%=      5-min Rain = 0
KCL1 220307Z 12014G22KT 05/M05 A2988 RMK A01 T00511050  RH  048%=      5-min Rain = 0
KCL1 220308Z 12016KT 05/M05 A2988 RMK A01 T00501051  RH  048%=      5-min Rain = 0
KCL1 220309Z 12016KT 05/M05 A2988 RMK A01 T00501050  RH  048%=      5-min Rain = 0
KCL1 220310Z 12015KT 05/M05 A2988 RMK A01 T00501050  RH  048%=      5-min Rain = 0
KCL1 220311Z 12016KT 05/M05 A2988 RMK A01 T00501051  RH  048%=      5-min Rain = 0
KCL1 220312Z 12016G21KT 05/M05 A2988 RMK A01 T00501051  RH  048%=      5-min Rain = 0
KCL1 220313Z 13016KT 05/M05 A2988 RMK A01 T00501051  RH  048%=      5-min Rain = 0
KCL1 220314Z 12015KT 05/M05 A2988 RMK A01 T00491051  RH  048%=      5-min Rain = 0
KCL1 220315Z 12017KT 05/M05 A2989 RMK A01 T00491051  RH  048%=      5-min Rain = 0
KCL1 220316Z 13016KT 05/M05 A2989 RMK A01 T00491051  RH  048%=      5-min Rain = 0
KCL1 220317Z 12018KT 05/M05 A2989 RMK A01 T00491051  RH  048%=      5-min Rain = 0
KCL1 220318Z 12016KT 05/M05 A2989 RMK A01 T00491051  RH  048%=      5-min Rain = 0
KCL1 220319Z 12018KT 05/M05 A2989 RMK A01 T00491051  RH  048%=      5-min Rain = 0
KCL1 220320Z 12017KT 05/M05 A2989 RMK A01 T00491051  RH  048%=      5-min Rain = 0
KCL1 220321Z 12014KT 05/M05 A2989 RMK A01 T00491051  RH  048%=      5-min Rain = 0
KCL1 220322Z 13014KT 05/M05 A2989 RMK A01 T00491051  RH  048%=      5-min Rain = 0
KCL1 220323Z 13013KT 05/M05 A2989 RMK A01 T00481051  RH  049%=      5-min Rain = 0
KCL1 220324Z 12014KT 05/M05 A2989 RMK A01 T00471052  RH  049%=      5-min Rain = 0
KCL1 220325Z 13017KT 05/M05 A2989 RMK A01 T00461052  RH  049%=      5-min Rain = 0
KCL1 220326Z 12014KT 05/M05 A2989 RMK A01 T00461051  RH  049%=      5-min Rain = 0
KCL1 220327Z 13014KT 05/M05 A2989 RMK A01 T00471051  RH  049%=      5-min Rain = 0
KCL1 220328Z 12017KT 05/M05 A2989 RMK A01 T00471050  RH  049%=      5-min Rain = 0
KCL1 220329Z 13018KT 05/M05 A2989 RMK A01 T00471050  RH  050%=      5-min Rain = 0
KCL1 220330Z 13016KT 05/M05 A2989 RMK A01 T00481049  RH  050%=      5-min Rain = 0
KCL1 220331Z 12014KT 05/M05 A2989 RMK A01 T00471050  RH  049%=      5-min Rain = 0
KCL1 220332Z 12016KT 05/M05 A299 RMK A01 T00471050  RH  049%=      5-min Rain = 0
KCL1 220333Z 12019KT 05/M05 A299 RMK A01 T00461050  RH  050%=      5-min Rain = 0
KCL1 220334Z 12017KT 05/M05 A299 RMK A01 T00461049  RH  050%=      5-min Rain = 0
KCL1 220335Z 13016KT 05/M05 A299 RMK A01 T00471049  RH  050%=      5-min Rain = 0
KCL1 220336Z 13016KT 05/M05 A299 RMK A01 T00471050  RH  050%=      5-min Rain = 0
KCL1 220337Z 12017KT 05/M05 A299 RMK A01 T00461050  RH  050%=      5-min Rain = 0
KCL1 220338Z 12015KT 05/M05 A299 RMK A01 T00461050  RH  050%=      5-min Rain = 0
KCL1 220339Z 12015KT 05/M05 A299 RMK A01 T00461050  RH  050%=      5-min Rain = 0
KCL1 220340Z 12015KT 05/M05 A299 RMK A01 T00461050  RH  050%=      5-min Rain = 0
KCL1 220341Z 12015KT 05/M05 A299 RMK A01 T00451050  RH  050%=      5-min Rain = 0
KCL1 220342Z 12014KT 05/M05 A299 RMK A01 T00451050  RH  050%=      5-min Rain = 0
KCL1 220343Z 12015KT 05/M05 A299 RMK A01 T00451050  RH  050%=      5-min Rain = 0
KCL1 220344Z 12014KT 05/M05 A299 RMK A01 T00451049  RH  051%=      5-min Rain = 0
KCL1 220345Z 12014KT 04/M05 A299 RMK A01 T00441049  RH  051%=      5-min Rain = 0
KCL1 220346Z 12017KT 04/M05 A299 RMK A01 T00441049  RH  051%=      5-min Rain = 0
KCL1 220347Z 12014KT 05/M05 A299 RMK A01 T00451049  RH  051%=      5-min Rain = 0
KCL1 220348Z 12014KT 04/M05 A299 RMK A01 T00441050  RH  051%=      5-min Rain = 0
KCL1 220349Z 13015KT 04/M05 A299 RMK A01 T00441050  RH  051%=      5-min Rain = 0
KCL1 220350Z 12013KT 04/M05 A299 RMK A01 T00441050  RH  051%=      5-min Rain = 0
KCL1 220351Z 12014KT 04/M05 A299 RMK A01 T00431050  RH  051%=      5-min Rain = 0
KCL1 220352Z 13014KT 04/M05 A299 RMK A01 T00431050  RH  051%=      5-min Rain = 0
KCL1 220353Z 12013KT 04/M05 A299 RMK A01 T00421051  RH  051%=      5-min Rain = 0
KCL1 220354Z 13018KT 04/M05 A299 RMK A01 T00421050  RH  051%=      5-min Rain = 0
KCL1 220355Z 12017KT 04/M05 A299 RMK A01 T00421050  RH  051%=      5-min Rain = 0
KCL1 220356Z 13017KT 04/M05 A299 RMK A01 T00431050  RH  051%=      5-min Rain = 0
KCL1 220357Z 12015KT 04/M05 A299 RMK A01 T00431050  RH  051%=      5-min Rain = 0
KCL1 220358Z 12017KT 04/M05 A299 RMK A01 T00431050  RH  051%=      5-min Rain = 0
KCL1 220359Z 13017G23KT 04/M05 A299 RMK A01 T00421050  RH  051%=      5-min Rain = 0
KCL1 220400Z 12017KT 04/M05 A299 RMK A01 T00431050  RH  051%=      5-min Rain = 0
KCL1 220401Z 12016G21KT 04/M05 A299 RMK A01 T00421050  RH  051%=      5-min Rain = 0
KCL1 220402Z 13018KT 04/M05 A299 RMK A01 T00431050  RH  051%=      5-min Rain = 0
KCL1 220403Z 12016G21KT 04/M05 A299 RMK A01 T00431050  RH  051%=      5-min Rain = 0
KCL1 220404Z 12021KT 04/M05 A299 RMK A01 T00421050  RH  051%=      5-min Rain = 0
KCL1 220405Z 12017KT 04/M05 A299 RMK A01 T00431050  RH  051%=      5-min Rain = 0
KCL1 220406Z 12016KT 04/M05 A299 RMK A01 T00421050  RH  051%=      5-min Rain = 0
KCL1 220407Z 12014KT 04/M05 A299 RMK A01 T00421050  RH  051%=      5-min Rain = 0
KCL1 220408Z 12016KT 04/M05 A299 RMK A01 T00421050  RH  051%=      5-min Rain = 0
KCL1 220409Z 13019KT 04/M05 A299 RMK A01 T00411050  RH  051%=      5-min Rain = 0
KCL1 220410Z 12017G23KT 04/M05 A299 RMK A01 T00411050  RH  052%=      5-min Rain = 0
KCL1 220411Z 12020KT 04/M05 A299 RMK A01 T00411050  RH  052%=      5-min Rain = 0
KCL1 220412Z 12016KT 04/M05 A299 RMK A01 T00411049  RH  052%=      5-min Rain = 0
KCL1 220413Z 12016KT 04/M05 A299 RMK A01 T00411050  RH  052%=      5-min Rain = 0
KCL1 220414Z 12017G23KT 04/M05 A299 RMK A01 T00411050  RH  052%=      5-min Rain = 0
KCL1 220415Z 12017KT 04/M05 A299 RMK A01 T00411050  RH  052%=      5-min Rain = 0
KCL1 220416Z 12015KT 04/M05 A299 RMK A01 T00411050  RH  052%=      5-min Rain = 0
KCL1 220417Z 12015KT 04/M05 A299 RMK A01 T00401050  RH  052%=      5-min Rain = 0
KCL1 220418Z 13015G20KT 04/M05 A299 RMK A01 T00401050  RH  052%=      5-min Rain = 0
KCL1 220419Z 13014KT 04/M05 A299 RMK A01 T00401050  RH  052%=      5-min Rain = 0
KCL1 220420Z 13015KT 04/M05 A299 RMK A01 T00391050  RH  052%=      5-min Rain = 0
KCL1 220421Z 12013KT 04/M05 A2991 RMK A01 T00391050  RH  052%=      5-min Rain = 0
KCL1 220422Z 13015KT 04/M05 A2991 RMK A01 T00381050  RH  053%=      5-min Rain = 0
KCL1 220423Z 13013G20KT 04/M05 A2991 RMK A01 T00381050  RH  053%=      5-min Rain = 0
KCL1 220424Z 13017KT 04/M05 A2991 RMK A01 T00381050  RH  053%=      5-min Rain = 0
KCL1 220425Z 13014KT 04/M05 A2991 RMK A01 T00381049  RH  053%=      5-min Rain = 0
KCL1 220426Z 13014KT 04/M05 A2991 RMK A01 T00381049  RH  053%=      5-min Rain = 0
KCL1 220427Z 13014KT 04/M05 A2991 RMK A01 T00381049  RH  053%=      5-min Rain = 0
KCL1 220428Z 13017KT 04/M05 A2991 RMK A01 T00371049  RH  053%=      5-min Rain = 0
KCL1 220429Z 13018G23KT 04/M05 A2991 RMK A01 T00371049  RH  053%=      5-min Rain = 0
KCL1 220430Z 13017KT 04/M05 A2991 RMK A01 T00381049  RH  053%=      5-min Rain = 0
KCL1 220431Z 13018KT 04/M05 A2991 RMK A01 T00381048  RH  053%=      5-min Rain = 0
KCL1 220432Z 13017G22KT 04/M05 A2991 RMK A01 T00391048  RH  053%=      5-min Rain = 0
KCL1 220433Z 13016G21KT 04/M05 A2991 RMK A01 T00391048  RH  053%=      5-min Rain = 0
KCL1 220434Z 13019G24KT 04/M05 A2991 RMK A01 T00381048  RH  053%=      5-min Rain = 0
KCL1 220435Z 13016KT 04/M05 A2991 RMK A01 T00381047  RH  053%=      5-min Rain = 0
KCL1 220436Z 12019KT 04/M05 A2991 RMK A01 T00381047  RH  054%=      5-min Rain = 0
KCL1 220437Z 13017G22KT 04/M05 A2991 RMK A01 T00381046  RH  054%=      5-min Rain = 0
KCL1 220438Z 13016KT 04/M05 A2991 RMK A01 T00381046  RH  054%=      5-min Rain = 0
KCL1 220439Z 13015KT 04/M05 A2991 RMK A01 T00371046  RH  054%=      5-min Rain = 0
KCL1 220440Z 13016KT 04/M05 A2991 RMK A01 T00371046  RH  055%=      5-min Rain = 0
KCL1 220441Z 13014G19KT 04/M05 A2991 RMK A01 T00361045  RH  055%=      5-min Rain = 0
KCL1 220442Z 13017KT 04/M05 A2991 RMK A01 T00361046  RH  055%=      5-min Rain = 0
KCL1 220443Z 12014G19KT 04/M05 A2991 RMK A01 T00361045  RH  056%=      5-min Rain = 0
KCL1 220444Z 13014KT 04/M05 A2991 RMK A01 T00361045  RH  056%=      5-min Rain = 0
KCL1 220445Z 12015KT 04/M05 A2991 RMK A01 T00351045  RH  056%=      5-min Rain = 0
KCL1 220446Z 13017G23KT 04/M04 A2991 RMK A01 T00351044  RH  056%=      5-min Rain = 0
KCL1 220447Z 13017KT 04/M04 A2991 RMK A01 T00351043  RH  057%=      5-min Rain = 0
KCL1 220448Z 13014G19KT 04/M04 A2991 RMK A01 T00361043  RH  056%=      5-min Rain = 0
KCL1 220449Z 13016KT 04/M04 A2991 RMK A01 T00351043  RH  056%=      5-min Rain = 0
KCL1 220450Z 13014KT 04/M04 A2991 RMK A01 T00351043  RH  056%=      5-min Rain = 0
KCL1 220451Z 13014KT 04/M04 A2992 RMK A01 T00351043  RH  057%=      5-min Rain = 0
KCL1 220452Z 12014KT 04/M04 A2992 RMK A01 T00351043  RH  057%=      5-min Rain = 0
KCL1 220453Z 12012KT 03/M04 A2992 RMK A01 T00341043  RH  057%=      5-min Rain = 0
KCL1 220454Z 13013KT 03/M04 A2992 RMK A01 T00331043  RH  057%=      5-min Rain = 0
KCL1 220455Z 13012G18KT 03/M04 A2992 RMK A01 T00331044  RH  057%=      5-min Rain = 0
KCL1 220456Z 13013KT 03/M04 A2992 RMK A01 T00321044  RH  057%=      5-min Rain = 0
KCL1 220457Z 13013KT 03/M04 A2992 RMK A01 T00321043  RH  058%=      5-min Rain = 0
KCL1 220458Z 13014KT 03/M04 A2992 RMK A01 T00331043  RH  058%=      5-min Rain = 0
KCL1 220459Z 13016KT 03/M04 A2992 RMK A01 T00321043  RH  058%=      5-min Rain = 0
KCL1 220500Z 13016KT 03/M04 A2992 RMK A01 T00331042  RH  058%=      5-min Rain = 0
KCL1 220501Z 13015KT 03/M04 A2992 RMK A01 T00341042  RH  058%=      5-min Rain = 0
KCL1 220502Z 13015KT 03/M04 A2992 RMK A01 T00341042  RH  058%=      5-min Rain = 0
KCL1 220503Z 13015KT 03/M04 A2992 RMK A01 T00341041  RH  058%=      5-min Rain = 0
KCL1 220504Z 13015KT 03/M04 A2992 RMK A01 T00331040  RH  059%=      5-min Rain = 0
KCL1 220505Z 13014KT 03/M04 A2992 RMK A01 T00331039  RH  059%=      5-min Rain = 0
KCL1 220506Z 13015G20KT 03/M04 A2992 RMK A01 T00331039  RH  059%=      5-min Rain = 0
KCL1 220507Z 13015KT 03/M04 A2992 RMK A01 T00321038  RH  060%=      5-min Rain = 0
KCL1 220508Z 13014KT 03/M04 A2992 RMK A01 T00321038  RH  060%=      5-min Rain = 0
KCL1 220509Z 13015KT 03/M04 A2992 RMK A01 T00321037  RH  061%=      5-min Rain = 0
KCL1 220510Z 13014KT 03/M04 A2992 RMK A01 T00321037  RH  061%=      5-min Rain = 0
KCL1 220511Z 13014KT 03/M04 A2992 RMK A01 T00321037  RH  061%=      5-min Rain = 0
KCL1 220512Z 13013KT 03/M04 A2992 RMK A01 T00321036  RH  061%=      5-min Rain = 0
KCL1 220513Z 13013KT 03/M04 A2992 RMK A01 T00311037  RH  061%=      5-min Rain = 0
KCL1 220514Z 13014KT 03/M04 A2991 RMK A01 T00311037  RH  061%=      5-min Rain = 0
KCL1 220515Z 13014KT 03/M04 A2992 RMK A01 T00301037  RH  061%=      5-min Rain = 0
KCL1 220516Z 13012KT 03/M04 A2992 RMK A01 T00301036  RH  062%=      5-min Rain = 0
KCL1 220517Z 13015KT 03/M04 A2991 RMK A01 T00301036  RH  062%=      5-min Rain = 0
KCL1 220518Z 13013KT 03/M04 A2992 RMK A01 T00301035  RH  062%=      5-min Rain = 0
KCL1 220519Z 13013KT 03/M04 A2992 RMK A01 T00311035  RH  062%=      5-min Rain = 0
KCL1 220520Z 13013KT 03/M04 A2992 RMK A01 T00301036  RH  062%=      5-min Rain = 0
KCL1 220521Z 14011KT 03/M04 A2992 RMK A01 T00301036  RH  062%=      5-min Rain = 0
KCL1 220522Z 13012KT 03/M04 A2992 RMK A01 T00291036  RH  062%=      5-min Rain = 0
KCL1 220523Z 13014KT 03/M04 A2992 RMK A01 T00291036  RH  063%=      5-min Rain = 0
KCL1 220524Z 13016KT 03/M04 A2991 RMK A01 T00291035  RH  063%=      5-min Rain = 0
KCL1 220525Z 13014KT 03/M03 A2991 RMK A01 T00301034  RH  063%=      5-min Rain = 0
KCL1 220526Z 13014KT 03/M03 A2991 RMK A01 T00301034  RH  063%=      5-min Rain = 0
KCL1 220527Z 13014KT 03/M03 A2991 RMK A01 T00301034  RH  063%=      5-min Rain = 0
KCL1 220528Z 13013KT 03/M03 A2992 RMK A01 T00301034  RH  063%=      5-min Rain = 0
KCL1 220529Z 13011KT 03/M03 A2992 RMK A01 T00301033  RH  063%=      5-min Rain = 0
KCL1 220530Z 13015KT 03/M03 A2991 RMK A01 T00291034  RH  063%=      5-min Rain = 0
KCL1 220531Z 14016KT 03/M03 A2991 RMK A01 T00291033  RH  064%=      5-min Rain = 0
KCL1 220532Z 13015KT 03/M03 A2991 RMK A01 T00291032  RH  064%=      5-min Rain = 0
KCL1 220533Z 13015KT 03/M03 A2991 RMK A01 T00301033  RH  064%=      5-min Rain = 0
KCL1 220534Z 13011KT 03/M03 A2991 RMK A01 T00301033  RH  063%=      5-min Rain = 0
KCL1 220535Z 13011KT 03/M03 A2991 RMK A01 T00291034  RH  064%=      5-min Rain = 0
KCL1 220536Z 14011KT 03/M03 A2991 RMK A01 T00281034  RH  064%=      5-min Rain = 0
KCL1 220537Z 14009KT 03/M03 A2991 RMK A01 T00281034  RH  064%=      5-min Rain = 0
KCL1 220538Z 14011KT 03/M03 A2991 RMK A01 T00271034  RH  064%=      5-min Rain = 0
KCL1 220539Z 14012KT 03/M03 A2991 RMK A01 T00261034  RH  065%=      5-min Rain = 0
KCL1 220540Z 14009KT 03/M03 A2992 RMK A01 T00261034  RH  065%=      5-min Rain = 0
KCL1 220541Z 14011KT 03/M03 A2992 RMK A01 T00251034  RH  065%=      5-min Rain = 0
KCL1 220542Z 14012KT 03/M03 A2992 RMK A01 T00251034  RH  065%=      5-min Rain = 0
KCL1 220543Z 14012KT 03/M03 A2991 RMK A01 T00251033  RH  065%=      5-min Rain = 0
KCL1 220544Z 14011KT 03/M03 A2991 RMK A01 T00261033  RH  065%=      5-min Rain = 0
KCL1 220545Z 14012KT 03/M03 A2991 RMK A01 T00261033  RH  065%=      5-min Rain = 0
KCL1 220546Z 14013KT 03/M03 A2991 RMK A01 T00251033  RH  066%=      5-min Rain = 0
KCL1 220547Z 14013KT 03/M03 A2991 RMK A01 T00261032  RH  066%=      5-min Rain = 0
KCL1 220548Z 14012KT 03/M03 A2991 RMK A01 T00261032  RH  066%=      5-min Rain = 0
KCL1 220549Z 14010KT 03/M03 A2991 RMK A01 T00261032  RH  066%=      5-min Rain = 0
KCL1 220550Z 14009KT 03/M03 A2991 RMK A01 T00251032  RH  066%=      5-min Rain = 0
KCL1 220551Z 14011KT 02/M03 A2991 RMK A01 T00241033  RH  066%=      5-min Rain = 0
KCL1 220552Z 14011KT 02/M03 A2991 RMK A01 T00241032  RH  067%=      5-min Rain = 0
KCL1 220553Z 14013KT 02/M03 A2991 RMK A01 T00241031  RH  067%=      5-min Rain = 0
KCL1 220554Z 14015KT 02/M03 A2991 RMK A01 T00241031  RH  067%=      5-min Rain = 0
KCL1 220555Z 14010KT 02/M03 A2991 RMK A01 T00241031  RH  067%=      5-min Rain = 0
KCL1 220556Z 14011KT 02/M03 A2991 RMK A01 T00241031  RH  067%=      5-min Rain = 0
KCL1 220557Z 14013KT 02/M03 A2991 RMK A01 T00241031  RH  067%=      5-min Rain = 0
KCL1 220558Z 14012KT 02/M03 A2991 RMK A01 T00241030  RH  068%=      5-min Rain = 0
KCL1 220559Z 13014KT 02/M03 A2991 RMK A01 T00231030  RH  068%=      5-min Rain = 0

Page generated in 0.1414 seconds.